Wetterdaten: Montag, 28.12.2020
Datum Zeit Temp. Aussen Temp. o. S. Temp +5cm Feuchte Auss Luftdruck Regen Sonnenschein Regendauer Solar Windben Empfang
28.12.2020 00:00 4,3 C 3,3 C 1,6 C 94 % 977,1 hPa 0,0 l/m 0 min 0 min 0 W/m 0,0 km/h (0 Bft) 97,87 %
28.12.2020 00:02 4,3 C 3,3 C 1,6 C 94 % 977,2 hPa 0,0 l/m 0 min 0 min 0 W/m 0,0 km/h (0 Bft) 90,00 %
28.12.2020 00:04 4,3 C 3,3 C 1,6 C 94 % 977,1 hPa 0,0 l/m 0 min 0 min 0 W/m 0,0 km/h (0 Bft) 97,87 %
28.12.2020 00:08 4,3 C 3,3 C 1,6 C 94 % 977,2 hPa 0,0 l/m 0 min 0 min 0 W/m 0,0 km/h (0 Bft) 98,00 %
28.12.2020 00:10 4,3 C 3,3 C 1,6 C 94 % 977,3 hPa 0,0 l/m 0 min 0 min 0 W/m 0,0 km/h (0 Bft) 97,87 %
28.12.2020 00:12 4,3 C 3,3 C 1,6 C 94 % 977,2 hPa 0,0 l/m 0 min 0 min 0 W/m 0,0 km/h (0 Bft) 93,62 %
28.12.2020 00:14 4,3 C 3,3 C 1,6 C 94 % 977,2 hPa 0,0 l/m 0 min 0 min 0 W/m 0,0 km/h (0 Bft) 50,00 %
28.12.2020 00:16 4,3 C 3,3 C 1,6 C 94 % 977,3 hPa 0,0 l/m 0 min 0 min 0 W/m 0,0 km/h (0 Bft) 97,87 %
28.12.2020 00:18 4,3 C 3,3 C 1,6 C 94 % 977,3 hPa 0,0 l/m 0 min 0 min 0 W/m 0,0 km/h (0 Bft) 95,74 %
28.12.2020 00:20 4,3 C 3,3 C 1,6 C 94 % 977,3 hPa 0,0 l/m 0 min 0 min 0 W/m 0,0 km/h (0 Bft) 97,83 %
28.12.2020 00:22 4,3 C 3,3 C 1,6 C 94 % 977,3 hPa 0,0 l/m 0 min 0 min 0 W/m 0,0 km/h (0 Bft) 95,74 %
28.12.2020 00:24 4,3 C 3,3 C 1,6 C 94 % 977,3 hPa 0,0 l/m 0 min 0 min 0 W/m 0,0 km/h (0 Bft) 97,87 %
28.12.2020 00:26 4,3 C 3,3 C 1,6 C 94 % 977,3 hPa 0,0 l/m 0 min 0 min 0 W/m 0,0 km/h (0 Bft) 95,65 %
28.12.2020 00:28 4,3 C 3,3 C 1,6 C 94 % 977,3 hPa 0,0 l/m 0 min 0 min 0 W/m 0,0 km/h (0 Bft) 97,87 %
28.12.2020 00:30 4,3 C 3,3 C 1,6 C 94 % 977,3 hPa 0,0 l/m 0 min 0 min 0 W/m 0,0 km/h (0 Bft) 95,74 %
28.12.2020 00:32 4,3 C 3,3 C 1,6 C 94 % 977,3 hPa 0,0 l/m 0 min 0 min 0 W/m 0,0 km/h (0 Bft) 97,92 %
28.12.2020 00:34 4,3 C 3,3 C 1,6 C 94 % 977,3 hPa 0,0 l/m 0 min 0 min 0 W/m 0,0 km/h (0 Bft) 97,87 %
28.12.2020 00:36 4,3 C 3,3 C 1,6 C 94 % 977,2 hPa 0,0 l/m 0 min 0 min 0 W/m 0,0 km/h (0 Bft) 95,65 %
28.12.2020 00:38 4,3 C 3,3 C 1,6 C 94 % 977,2 hPa 0,0 l/m 0 min 0 min 0 W/m 0,0 km/h (0 Bft) 100,00 %
28.12.2020 00:40 4,3 C 3,3 C 1,6 C 94 % 977,2 hPa 0,0 l/m 0 min 0 min 0 W/m 0,0 km/h (0 Bft) 100,00 %
28.12.2020 00:42 4,3 C 3,3 C 1,6 C 94 % 977,2 hPa 0,0 l/m 0 min 0 min 0 W/m 0,0 km/h (0 Bft) 100,00 %
28.12.2020 00:44 4,3 C 3,3 C 1,6 C 94 % 977,2 hPa 0,0 l/m 0 min 0 min 0 W/m 0,0 km/h (0 Bft) 97,87 %
28.12.2020 00:46 4,3 C 3,3 C 1,6 C 94 % 977,3 hPa 0,0 l/m 0 min 0 min 0 W/m 0,0 km/h (0 Bft) 100,00 %
28.12.2020 00:48 4,3 C 3,3 C 1,6 C 94 % 977,3 hPa 0,0 l/m 0 min 0 min 0 W/m 0,0 km/h (0 Bft) 100,00 %
28.12.2020 00:50 4,3 C 3,3 C 1,6 C 94 % 977,3 hPa 0,0 l/m 0 min 2 min 0 W/m 0,0 km/h (0 Bft) 100,00 %
28.12.2020 00:52 4,3 C 3,3 C 1,6 C 94 % 977,3 hPa 0,0 l/m 0 min 2 min 0 W/m 0,0 km/h (0 Bft) 100,00 %
28.12.2020 00:54 4,3 C 3,3 C 1,6 C 94 % 977,2 hPa 0,0 l/m 0 min 2 min 0 W/m 0,0 km/h (0 Bft) 97,87 %
28.12.2020 00:56 4,3 C 3,3 C 1,6 C 94 % 977,2 hPa 0,0 l/m 0 min 2 min 0 W/m 0,0 km/h (0 Bft) 100,00 %
28.12.2020 00:58 4,3 C 3,3 C 1,6 C 94 % 977,2 hPa 0,2 l/m 0 min 2 min 0 W/m 0,0 km/h (0 Bft) 100,00 %
28.12.2020 01:00 4,3 C 3,3 C 1,6 C 94 % 977,2 hPa 0,0 l/m 0 min 2 min 0 W/m 0,0 km/h (0 Bft) 100,00 %
28.12.2020 01:02 4,3 C 2,8 C 1,6 C 94 % 977,2 hPa 0,0 l/m 0 min 2 min 0 W/m 0,0 km/h (0 Bft) 97,30 %
28.12.2020 01:04 4,3 C 2,8 C 1,6 C 94 % 977,3 hPa 0,0 l/m 0 min 2 min 0 W/m 0,0 km/h (0 Bft) 100,00 %
28.12.2020 01:06 4,3 C 2,8 C 1,6 C 94 % 977,3 hPa 0,0 l/m 0 min 2 min 0 W/m 0,0 km/h (0 Bft) 100,00 %
28.12.2020 01:08 4,3 C 2,8 C 1,6 C 94 % 977,3 hPa 0,0 l/m 0 min 2 min 0 W/m 3,2 km/h (1 Bft) 100,00 %
28.12.2020 01:10 4,2 C 2,8 C 1,6 C 94 % 977,3 hPa 0,0 l/m 0 min 2 min 0 W/m 3,2 km/h (1 Bft) 100,00 %
28.12.2020 01:12 4,2 C 2,8 C 1,6 C 94 % 977,2 hPa 0,0 l/m 0 min 2 min 0 W/m 12,9 km/h (3 Bft) 100,00 %
28.12.2020 01:14 4,3 C 2,8 C 1,6 C 94 % 977,2 hPa 0,0 l/m 0 min 2 min 0 W/m 0,0 km/h (0 Bft) 100,00 %
28.12.2020 01:16 4,2 C 2,8 C 1,6 C 94 % 977,3 hPa 0,0 l/m 0 min 2 min 0 W/m 3,2 km/h (1 Bft) 100,00 %
28.12.2020 01:18 4,2 C 2,8 C 1,6 C 94 % 977,2 hPa 0,0 l/m 0 min 2 min 0 W/m 12,9 km/h (3 Bft) 100,00 %
28.12.2020 01:20 4,2 C 2,8 C 1,6 C 94 % 977,2 hPa 0,0 l/m 0 min 2 min 0 W/m 3,2 km/h (1 Bft) 100,00 %
28.12.2020 01:22 4,2 C 2,8 C 1,6 C 94 % 977,2 hPa 0,2 l/m 0 min 2 min 0 W/m 0,0 km/h (0 Bft) 100,00 %
28.12.2020 01:24 4,2 C 2,8 C 1,6 C 94 % 977,2 hPa 0,0 l/m 0 min 2 min 0 W/m 0,0 km/h (0 Bft) 100,00 %
28.12.2020 01:26 4,2 C 2,8 C 1,6 C 94 % 977,2 hPa 0,0 l/m 0 min 2 min 0 W/m 0,0 km/h (0 Bft) 100,00 %
28.12.2020 01:28 4,2 C 2,8 C 1,6 C 94 % 977,2 hPa 0,0 l/m 0 min 2 min 0 W/m 6,4 km/h (2 Bft) 97,87 %
28.12.2020 01:30 4,2 C 2,8 C 1,6 C 94 % 977,2 hPa 0,0 l/m 0 min 2 min 0 W/m 0,0 km/h (0 Bft) 97,87 %
28.12.2020 01:32 4,2 C 2,8 C 1,6 C 94 % 977,2 hPa 0,0 l/m 0 min 2 min 0 W/m 19,3 km/h (3 Bft) 97,87 %
28.12.2020 01:34 4,2 C 2,8 C 1,6 C 94 % 977,2 hPa 0,0 l/m 0 min 2 min 0 W/m 0,0 km/h (0 Bft) 100,00 %
28.12.2020 01:36 4,2 C 2,8 C 1,6 C 94 % 977,3 hPa 0,0 l/m 0 min 2 min 0 W/m 3,2 km/h (1 Bft) 100,00 %
28.12.2020 01:38 4,2 C 2,8 C 1,6 C 94 % 977,3 hPa 0,0 l/m 0 min 2 min 0 W/m 12,9 km/h (3 Bft) 97,83 %
28.12.2020 01:40 4,1 C 2,8 C 1,6 C 94 % 977,2 hPa 0,2 l/m 0 min 2 min 0 W/m 0,0 km/h (0 Bft) 97,87 %
28.12.2020 01:42 4,1 C 2,8 C 1,6 C 94 % 977,2 hPa 0,0 l/m 0 min 2 min 0 W/m 0,0 km/h (0 Bft) 97,87 %
28.12.2020 01:44 4,1 C 2,8 C 1,6 C 94 % 977,2 hPa 0,0 l/m 0 min 2 min 0 W/m 3,2 km/h (1 Bft) 95,74 %
28.12.2020 01:46 4,1 C 2,8 C 1,6 C 94 % 977,3 hPa 0,2 l/m 0 min 2 min 0 W/m 0,0 km/h (0 Bft) 97,87 %
28.12.2020 01:48 4,1 C 2,8 C 1,6 C 94 % 977,2 hPa 0,0 l/m 0 min 2 min 0 W/m 0,0 km/h (0 Bft) 95,74 %
28.12.2020 01:50 4,1 C 2,8 C 1,6 C 94 % 977,2 hPa 0,0 l/m 0 min 2 min 0 W/m 0,0 km/h (0 Bft) 97,83 %
28.12.2020 01:52 4,1 C 2,8 C 1,6 C 94 % 977,2 hPa 0,0 l/m 0 min 2 min 0 W/m 0,0 km/h (0 Bft) 97,87 %
28.12.2020 01:54 4,1 C 2,8 C 1,1 C 94 % 977,2 hPa 0,0 l/m 0 min 2 min 0 W/m 25,7 km/h (4 Bft) 97,87 %
28.12.2020 01:56 4,1 C 2,8 C 1,1 C 94 % 977,1 hPa 0,0 l/m 0 min 2 min 0 W/m 16,1 km/h (3 Bft) 97,87 %
28.12.2020 01:58 4,0 C 2,8 C 1,1 C 94 % 977,2 hPa 0,2 l/m 0 min 2 min 0 W/m 0,0 km/h (0 Bft) 95,74 %
28.12.2020 02:00 4,0 C 2,8 C 1,1 C 94 % 977,2 hPa 0,0 l/m 0 min 2 min 0 W/m 16,1 km/h (3 Bft) 95,65 %
28.12.2020 02:02 4,0 C 2,8 C 1,1 C 94 % 977,3 hPa 0,0 l/m 0 min 2 min 0 W/m 0,0 km/h (0 Bft) 95,83 %
28.12.2020 02:04 4,0 C 2,8 C 1,6 C 94 % 977,3 hPa 0,0 l/m 0 min 2 min 0 W/m 0,0 km/h (0 Bft) 97,87 %
28.12.2020 02:06 4,0 C 2,8 C 1,6 C 94 % 977,2 hPa 0,0 l/m 0 min 2 min 0 W/m 0,0 km/h (0 Bft) 97,87 %
28.12.2020 02:08 4,0 C 2,8 C 1,6 C 94 % 977,2 hPa 0,2 l/m 0 min 2 min 0 W/m 0,0 km/h (0 Bft) 97,87 %
28.12.2020 02:10 4,0 C 2,8 C 1,6 C 94 % 977,2 hPa 0,0 l/m 0 min 2 min 0 W/m 0,0 km/h (0 Bft) 95,92 %
28.12.2020 02:12 4,0 C 2,8 C 1,6 C 94 % 977,2 hPa 0,0 l/m 0 min 2 min 0 W/m 0,0 km/h (0 Bft) 97,83 %
28.12.2020 02:14 4,0 C 2,8 C 1,6 C 95 % 977,2 hPa 0,0 l/m 0 min 2 min 0 W/m 0,0 km/h (0 Bft) 97,87 %
28.12.2020 02:16 4,0 C 2,8 C 1,6 C 95 % 977,2 hPa 0,2 l/m 0 min 2 min 0 W/m 0,0 km/h (0 Bft) 47,37 %
28.12.2020 02:18 4,0 C 2,8 C 1,6 C 94 % 977,3 hPa 0,0 l/m 0 min 2 min 0 W/m 16,1 km/h (3 Bft) 97,87 %
28.12.2020 02:20 4,0 C 2,8 C 1,6 C 94 % 977,3 hPa 0,0 l/m 0 min 2 min 0 W/m 0,0 km/h (0 Bft) 97,87 %
28.12.2020 02:22 4,0 C 2,8 C 1,6 C 94 % 977,3 hPa 0,0 l/m 0 min 2 min 0 W/m 3,2 km/h (1 Bft) 100,00 %
28.12.2020 02:24 4,0 C 2,8 C 1,6 C 95 % 977,4 hPa 0,2 l/m 0 min 2 min 0 W/m 16,1 km/h (3 Bft) 100,00 %
28.12.2020 02:26 4,0 C 2,8 C 1,6 C 95 % 977,4 hPa 0,0 l/m 0 min 2 min 0 W/m 0,0 km/h (0 Bft) 100,00 %
28.12.2020 02:28 3,9 C 2,8 C 1,6 C 95 % 977,4 hPa 0,0 l/m 0 min 2 min 0 W/m 0,0 km/h (0 Bft) 100,00 %
28.12.2020 02:30 3,9 C 2,8 C 1,1 C 95 % 977,4 hPa 0,2 l/m 0 min 2 min 0 W/m 0,0 km/h (0 Bft) 100,00 %
28.12.2020 02:32 3,9 C 2,8 C 1,1 C 95 % 977,4 hPa 0,0 l/m 0 min 2 min 0 W/m 0,0 km/h (0 Bft) 100,00 %
28.12.2020 02:34 3,9 C 2,8 C 1,1 C 95 % 977,4 hPa 0,2 l/m 0 min 2 min 0 W/m 0,0 km/h (0 Bft) 100,00 %
28.12.2020 02:36 3,9 C 2,8 C 1,1 C 95 % 977,4 hPa 0,0 l/m 0 min 2 min 0 W/m 3,2 km/h (1 Bft) 100,00 %
28.12.2020 02:38 3,8 C 2,8 C 1,1 C 95 % 977,4 hPa 0,0 l/m 0 min 2 min 0 W/m 0,0 km/h (0 Bft) 100,00 %
28.12.2020 02:40 3,8 C 2,2 C 1,1 C 95 % 977,4 hPa 0,2 l/m 0 min 2 min 0 W/m 0,0 km/h (0 Bft) 100,00 %
28.12.2020 02:42 3,8 C 2,2 C 1,1 C 95 % 977,4 hPa 0,0 l/m 0 min 2 min 0 W/m 3,2 km/h (1 Bft) 100,00 %
28.12.2020 02:44 3,7 C 2,2 C 1,1 C 95 % 977,4 hPa 0,0 l/m 0 min 0 min 0 W/m 3,2 km/h (1 Bft) 100,00 %
28.12.2020 02:46 3,7 C 2,2 C 1,1 C 95 % 977,4 hPa 0,0 l/m 0 min 0 min 0 W/m 0,0 km/h (0 Bft) 100,00 %
28.12.2020 02:48 3,7 C 2,2 C 1,1 C 95 % 977,4 hPa 0,0 l/m 0 min 0 min 0 W/m 0,0 km/h (0 Bft) 95,74 %
28.12.2020 02:50 3,7 C 2,2 C 1,1 C 95 % 977,4 hPa 0,0 l/m 0 min 2 min 0 W/m 0,0 km/h (0 Bft) 97,87 %
28.12.2020 02:52 3,6 C 2,2 C 1,1 C 95 % 977,4 hPa 0,0 l/m 0 min 2 min 0 W/m 3,2 km/h (1 Bft) 95,74 %
28.12.2020 02:54 3,6 C 2,2 C 1,1 C 95 % 977,3 hPa 0,0 l/m 0 min 2 min 0 W/m 3,2 km/h (1 Bft) 95,74 %
28.12.2020 02:56 3,6 C 2,2 C 1,1 C 95 % 977,3 hPa 0,0 l/m 0 min 2 min 0 W/m 0,0 km/h (0 Bft) 97,87 %
28.12.2020 02:58 3,6 C 2,2 C 1,1 C 95 % 977,2 hPa 0,2 l/m 0 min 2 min 0 W/m 0,0 km/h (0 Bft) 97,83 %
28.12.2020 03:00 3,6 C 2,8 C 1,1 C 95 % 977,2 hPa 0,0 l/m 0 min 2 min 0 W/m 0,0 km/h (0 Bft) 97,87 %
28.12.2020 03:02 3,6 C 2,2 C 1,1 C 95 % 977,3 hPa 0,0 l/m 0 min 2 min 0 W/m 0,0 km/h (0 Bft) 97,87 %
28.12.2020 03:04 3,6 C 2,8 C 1,1 C 95 % 977,3 hPa 0,0 l/m 0 min 0 min 0 W/m 0,0 km/h (0 Bft) 97,87 %
28.12.2020 03:06 3,6 C 2,8 C 1,1 C 95 % 977,3 hPa 0,0 l/m 0 min 2 min 0 W/m 0,0 km/h (0 Bft) 97,87 %
28.12.2020 03:08 3,6 C 2,8 C 1,1 C 95 % 977,3 hPa 0,0 l/m 0 min 0 min 0 W/m 0,0 km/h (0 Bft) 95,74 %
28.12.2020 03:10 3,6 C 2,8 C 1,1 C 95 % 977,4 hPa 0,0 l/m 0 min 0 min 0 W/m 0,0 km/h (0 Bft) 98,11 %
28.12.2020 03:12 3,6 C 2,8 C 1,1 C 95 % 977,3 hPa 0,0 l/m 0 min 0 min 0 W/m 0,0 km/h (0 Bft) 97,87 %
28.12.2020 03:14 3,6 C 2,8 C 1,1 C 95 % 977,4 hPa 0,0 l/m 0 min 2 min 0 W/m 0,0 km/h (0 Bft) 80,85 %
28.12.2020 03:16 3,6 C 2,8 C 1,1 C 95 % 977,3 hPa 0,0 l/m 0 min 2 min 0 W/m 0,0 km/h (0 Bft) 70,45 %
28.12.2020 03:18 3,6 C 2,8 C 1,1 C 96 % 977,3 hPa 0,0 l/m 0 min 2 min 0 W/m 0,0 km/h (0 Bft) 97,87 %
28.12.2020 03:20 3,6 C 2,8 C 1,1 C 96 % 977,4 hPa 0,0 l/m 0 min 0 min 0 W/m 0,0 km/h (0 Bft) 97,83 %
28.12.2020 03:22 3,6 C 2,8 C 1,6 C 96 % 977,4 hPa 0,0 l/m 0 min 2 min 0 W/m 0,0 km/h (0 Bft) 100,00 %
28.12.2020 03:24 3,6 C 2,8 C 1,6 C 96 % 977,4 hPa 0,0 l/m 0 min 2 min 0 W/m 0,0 km/h (0 Bft) 95,74 %
28.12.2020 03:26 3,6 C 2,8 C 1,6 C 96 % 977,4 hPa 0,0 l/m 0 min 2 min 0 W/m 0,0 km/h (0 Bft) 97,87 %
28.12.2020 03:28 3,6 C 2,8 C 1,6 C 96 % 977,4 hPa 0,0 l/m 0 min 0 min 0 W/m 0,0 km/h (0 Bft) 97,87 %
28.12.2020 03:30 3,6 C 2,8 C 1,6 C 96 % 977,4 hPa 0,0 l/m 0 min 2 min 0 W/m 0,0 km/h (0 Bft) 97,87 %
28.12.2020 03:32 3,6 C 2,8 C 1,6 C 96 % 977,4 hPa 0,2 l/m 0 min 2 min 0 W/m 3,2 km/h (1 Bft) 97,83 %
28.12.2020 03:34 3,6 C 2,8 C 1,6 C 96 % 977,4 hPa 0,0 l/m 0 min 2 min 0 W/m 0,0 km/h (0 Bft) 97,87 %
28.12.2020 03:36 3,7 C 2,8 C 1,6 C 96 % 977,4 hPa 0,0 l/m 0 min 2 min 0 W/m 0,0 km/h (0 Bft) 97,87 %
28.12.2020 03:38 3,7 C 2,8 C 1,6 C 96 % 977,4 hPa 0,0 l/m 0 min 2 min 0 W/m 0,0 km/h (0 Bft) 100,00 %
28.12.2020 03:40 3,6 C 2,8 C 1,6 C 96 % 977,4 hPa 0,0 l/m 0 min 2 min 0 W/m 0,0 km/h (0 Bft) 100,00 %
28.12.2020 03:42 3,7 C 2,8 C 1,6 C 96 % 977,5 hPa 0,0 l/m 0 min 0 min 0 W/m 0,0 km/h (0 Bft) 100,00 %
28.12.2020 03:44 3,7 C 2,8 C 1,6 C 96 % 977,5 hPa 0,0 l/m 0 min 0 min 0 W/m 0,0 km/h (0 Bft) 100,00 %
28.12.2020 03:46 3,7 C 2,8 C 1,6 C 96 % 977,5 hPa 0,0 l/m 0 min 0 min 0 W/m 0,0 km/h (0 Bft) 97,87 %
28.12.2020 03:48 3,7 C 2,8 C 1,6 C 96 % 977,5 hPa 0,0 l/m 0 min 2 min 0 W/m 0,0 km/h (0 Bft) 100,00 %
28.12.2020 03:50 3,7 C 2,8 C 1,6 C 96 % 977,5 hPa 0,0 l/m 0 min 2 min 0 W/m 0,0 km/h (0 Bft) 97,87 %
28.12.2020 03:52 3,7 C 2,8 C 1,6 C 96 % 977,5 hPa 0,0 l/m 0 min 2 min 0 W/m 0,0 km/h (0 Bft) 100,00 %
28.12.2020 03:54 3,7 C 2,8 C 1,6 C 96 % 977,5 hPa 0,0 l/m 0 min 0 min 0 W/m 0,0 km/h (0 Bft) 100,00 %
28.12.2020 03:56 3,7 C 2,8 C 1,6 C 96 % 977,5 hPa 0,0 l/m 0 min 0 min 0 W/m 0,0 km/h (0 Bft) 95,74 %
28.12.2020 03:58 3,7 C 2,8 C 1,6 C 96 % 977,6 hPa 0,0 l/m 0 min 0 min 0 W/m 0,0 km/h (0 Bft) 100,00 %
28.12.2020 04:00 3,7 C 2,8 C 1,6 C 96 % 977,6 hPa 0,0 l/m 0 min 0 min 0 W/m 0,0 km/h (0 Bft) 100,00 %
28.12.2020 04:02 3,7 C 2,8 C 1,6 C 96 % 977,6 hPa 0,0 l/m 0 min 0 min 0 W/m 0,0 km/h (0 Bft) 100,00 %
28.12.2020 04:04 3,7 C 2,8 C 1,6 C 96 % 977,6 hPa 0,0 l/m 0 min 0 min 0 W/m 0,0 km/h (0 Bft) 100,00 %
28.12.2020 04:06 3,8 C 2,8 C 1,6 C 96 % 977,7 hPa 0,0 l/m 0 min 0 min 0 W/m 0,0 km/h (0 Bft) 97,87 %
28.12.2020 04:08 3,8 C 2,8 C 1,6 C 96 % 977,7 hPa 0,0 l/m 0 min 0 min 0 W/m 0,0 km/h (0 Bft) 95,65 %
28.12.2020 04:10 3,8 C 2,8 C 1,6 C 96 % 977,6 hPa 0,0 l/m 0 min 0 min 0 W/m 0,0 km/h (0 Bft) 97,87 %
28.12.2020 04:12 3,8 C 2,8 C 1,6 C 96 % 977,6 hPa 0,0 l/m 0 min 0 min 0 W/m 3,2 km/h (1 Bft) 97,87 %
28.12.2020 04:14 3,8 C 2,8 C 1,6 C 96 % 977,6 hPa 0,0 l/m 0 min 0 min 0 W/m 3,2 km/h (1 Bft) 78,72 %
28.12.2020 04:16 3,8 C 2,8 C 1,6 C 96 % 977,6 hPa 0,0 l/m 0 min 0 min 0 W/m 0,0 km/h (0 Bft) 70,73 %
28.12.2020 04:18 3,8 C 2,8 C 1,6 C 96 % 977,6 hPa 0,0 l/m 0 min 0 min 0 W/m 0,0 km/h (0 Bft) 97,87 %
28.12.2020 04:20 3,8 C 2,8 C 1,6 C 96 % 977,6 hPa 0,0 l/m 0 min 0 min 0 W/m 0,0 km/h (0 Bft) 97,83 %
28.12.2020 04:22 3,8 C 2,8 C 1,6 C 96 % 977,6 hPa 0,0 l/m 0 min 0 min 0 W/m 0,0 km/h (0 Bft) 97,87 %
28.12.2020 04:24 3,8 C 2,8 C 1,6 C 96 % 977,6 hPa 0,0 l/m 0 min 0 min 0 W/m 0,0 km/h (0 Bft) 97,87 %
28.12.2020 04:26 3,8 C 2,8 C 1,6 C 97 % 977,7 hPa 0,0 l/m 0 min 0 min 0 W/m 0,0 km/h (0 Bft) 97,87 %
28.12.2020 04:28 3,8 C 2,8 C 1,6 C 97 % 977,7 hPa 0,0 l/m 0 min 2 min 0 W/m 25,7 km/h (4 Bft) 98,25 %
28.12.2020 04:30 3,8 C 2,8 C 1,6 C 97 % 977,7 hPa 0,0 l/m 0 min 2 min 0 W/m 0,0 km/h (0 Bft) 97,30 %
28.12.2020 04:32 3,8 C 2,8 C 1,6 C 97 % 977,6 hPa 0,0 l/m 0 min 2 min 0 W/m 0,0 km/h (0 Bft) 97,87 %
28.12.2020 04:34 3,7 C 2,8 C 1,6 C 97 % 977,6 hPa 0,0 l/m 0 min 2 min 0 W/m 0,0 km/h (0 Bft) 97,87 %
28.12.2020 04:36 3,8 C 2,8 C 1,6 C 97 % 977,7 hPa 0,2 l/m 0 min 2 min 0 W/m 16,1 km/h (3 Bft) 97,87 %
28.12.2020 04:38 3,8 C 2,8 C 1,6 C 97 % 977,7 hPa 0,0 l/m 0 min 2 min 0 W/m 0,0 km/h (0 Bft) 97,87 %
28.12.2020 04:40 3,7 C 2,8 C 1,6 C 97 % 977,6 hPa 0,0 l/m 0 min 2 min 0 W/m 3,2 km/h (1 Bft) 97,92 %
28.12.2020 04:42 3,7 C 2,8 C 1,6 C 97 % 977,6 hPa 0,0 l/m 0 min 2 min 0 W/m 3,2 km/h (1 Bft) 97,83 %
28.12.2020 04:44 3,7 C 2,8 C 1,6 C 97 % 977,5 hPa 0,0 l/m 0 min 2 min 0 W/m 0,0 km/h (0 Bft) 100,00 %
28.12.2020 04:46 3,7 C 2,8 C 1,6 C 97 % 977,5 hPa 0,0 l/m 0 min 0 min 0 W/m 0,0 km/h (0 Bft) 91,49 %
28.12.2020 04:48 3,7 C 2,8 C 1,6 C 97 % 977,5 hPa 0,0 l/m 0 min 0 min 0 W/m 12,9 km/h (3 Bft) 95,74 %
28.12.2020 04:50 3,7 C 2,8 C 1,6 C 97 % 977,5 hPa 0,0 l/m 0 min 0 min 0 W/m 3,2 km/h (1 Bft) 97,87 %
28.12.2020 04:52 3,6 C 2,8 C 1,6 C 97 % 977,5 hPa 0,0 l/m 0 min 2 min 0 W/m 0,0 km/h (0 Bft) 95,74 %
28.12.2020 04:54 3,6 C 2,8 C 1,6 C 97 % 977,5 hPa 0,0 l/m 0 min 2 min 0 W/m 3,2 km/h (1 Bft) 95,65 %
28.12.2020 04:56 3,6 C 2,8 C 1,6 C 97 % 977,6 hPa 0,0 l/m 0 min 2 min 0 W/m 0,0 km/h (0 Bft) 97,87 %
28.12.2020 04:58 3,6 C 2,8 C 1,6 C 97 % 977,6 hPa 0,0 l/m 0 min 2 min 0 W/m 0,0 km/h (0 Bft) 95,74 %
28.12.2020 05:00 3,6 C 2,8 C 1,6 C 97 % 977,6 hPa 0,0 l/m 0 min 0 min 0 W/m 3,2 km/h (1 Bft) 97,87 %
28.12.2020 05:02 3,6 C 2,8 C 1,6 C 97 % 977,6 hPa 0,0 l/m 0 min 0 min 0 W/m 0,0 km/h (0 Bft) 95,74 %
28.12.2020 05:04 3,6 C 2,8 C 1,6 C 97 % 977,7 hPa 0,0 l/m 0 min 0 min 0 W/m 0,0 km/h (0 Bft) 97,87 %
28.12.2020 05:06 3,6 C 2,8 C 1,6 C 97 % 977,7 hPa 0,0 l/m 0 min 0 min 0 W/m 0,0 km/h (0 Bft) 97,83 %
28.12.2020 05:08 3,6 C 2,8 C 1,6 C 97 % 977,8 hPa 0,0 l/m 0 min 0 min 0 W/m 0,0 km/h (0 Bft) 97,87 %
28.12.2020 05:10 3,6 C 2,8 C 1,6 C 97 % 977,8 hPa 0,0 l/m 0 min 0 min 0 W/m 0,0 km/h (0 Bft) 97,87 %
28.12.2020 05:12 3,6 C 2,8 C 1,6 C 97 % 977,8 hPa 0,0 l/m 0 min 0 min 0 W/m 0,0 km/h (0 Bft) 97,87 %
28.12.2020 05:14 3,6 C 2,8 C 1,6 C 97 % 977,8 hPa 0,0 l/m 0 min 0 min 0 W/m 0,0 km/h (0 Bft) 95,74 %
28.12.2020 05:16 3,6 C 2,8 C 1,6 C 97 % 977,8 hPa 0,0 l/m 0 min 0 min 0 W/m 0,0 km/h (0 Bft) 97,87 %
28.12.2020 05:18 3,6 C 2,8 C 1,6 C 97 % 977,8 hPa 0,0 l/m 0 min 0 min 0 W/m 0,0 km/h (0 Bft) 97,83 %
28.12.2020 05:20 3,6 C 2,8 C 1,6 C 97 % 977,8 hPa 0,0 l/m 0 min 0 min 0 W/m 0,0 km/h (0 Bft) 97,87 %
28.12.2020 05:22 3,6 C 2,8 C 1,6 C 97 % 977,9 hPa 0,0 l/m 0 min 0 min 0 W/m 3,2 km/h (1 Bft) 97,87 %
28.12.2020 05:24 3,6 C 2,8 C 1,6 C 97 % 977,8 hPa 0,0 l/m 0 min 0 min 0 W/m 3,2 km/h (1 Bft) 97,87 %
28.12.2020 05:26 3,6 C 2,8 C 1,6 C 97 % 977,8 hPa 0,0 l/m 0 min 0 min 0 W/m 0,0 km/h (0 Bft) 95,74 %
28.12.2020 05:28 3,6 C 2,8 C 1,6 C 97 % 977,8 hPa 0,0 l/m 0 min 0 min 0 W/m 0,0 km/h (0 Bft) 97,83 %
28.12.2020 05:30 3,6 C 2,8 C 1,6 C 97 % 977,8 hPa 0,0 l/m 0 min 0 min 0 W/m 0,0 km/h (0 Bft) 97,87 %
28.12.2020 05:32 3,6 C 2,8 C 1,6 C 97 % 977,8 hPa 0,0 l/m 0 min 0 min 0 W/m 0,0 km/h (0 Bft) 97,87 %
28.12.2020 05:34 3,6 C 2,8 C 1,6 C 97 % 977,8 hPa 0,0 l/m 0 min 0 min 0 W/m 0,0 km/h (0 Bft) 95,74 %
28.12.2020 05:36 3,6 C 2,8 C 1,6 C 97 % 977,8 hPa 0,0 l/m 0 min 0 min 0 W/m 0,0 km/h (0 Bft) 95,74 %
28.12.2020 05:38 3,6 C 2,8 C 1,6 C 97 % 977,7 hPa 0,0 l/m 0 min 0 min 0 W/m 12,9 km/h (3 Bft) 97,87 %
28.12.2020 05:40 3,6 C 2,8 C 1,6 C 97 % 977,6 hPa 0,0 l/m 0 min 0 min 0 W/m 0,0 km/h (0 Bft) 96,30 %
28.12.2020 05:42 3,6 C 2,8 C 1,6 C 97 % 977,7 hPa 0,0 l/m 0 min 0 min 0 W/m 0,0 km/h (0 Bft) 93,62 %
28.12.2020 05:44 3,6 C 2,8 C 1,6 C 97 % 977,7 hPa 0,0 l/m 0 min 0 min 0 W/m 0,0 km/h (0 Bft) 95,74 %
28.12.2020 05:46 3,6 C 2,8 C 1,6 C 97 % 977,7 hPa 0,0 l/m 0 min 0 min 0 W/m 0,0 km/h (0 Bft) 95,74 %
28.12.2020 05:48 3,6 C 2,8 C 1,6 C 97 % 977,7 hPa 0,0 l/m 0 min 0 min 0 W/m 0,0 km/h (0 Bft) 95,74 %
28.12.2020 05:50 3,5 C 2,8 C 1,6 C 97 % 977,7 hPa 0,0 l/m 0 min 0 min 0 W/m 0,0 km/h (0 Bft) 95,65 %
28.12.2020 05:52 3,5 C 2,8 C 1,6 C 97 % 977,8 hPa 0,0 l/m 0 min 0 min 0 W/m 0,0 km/h (0 Bft) 94,74 %
28.12.2020 05:54 3,5 C 2,8 C 1,6 C 97 % 977,7 hPa 0,0 l/m 0 min 0 min 0 W/m 0,0 km/h (0 Bft) 95,74 %
28.12.2020 05:56 3,5 C 2,8 C 1,6 C 97 % 977,7 hPa 0,0 l/m 0 min 0 min 0 W/m 0,0 km/h (0 Bft) 95,74 %
28.12.2020 05:58 3,5 C 2,8 C 1,1 C 97 % 977,6 hPa 0,0 l/m 0 min 0 min 0 W/m 0,0 km/h (0 Bft) 95,74 %
28.12.2020 06:00 3,5 C 2,8 C 1,1 C 97 % 977,6 hPa 0,0 l/m 0 min 0 min 0 W/m 0,0 km/h (0 Bft) 95,74 %
28.12.2020 06:02 3,5 C 2,2 C 1,1 C 97 % 977,6 hPa 0,0 l/m 0 min 0 min 0 W/m 0,0 km/h (0 Bft) 91,67 %
28.12.2020 06:04 3,5 C 2,2 C 1,1 C 97 % 977,6 hPa 0,0 l/m 0 min 0 min 0 W/m 0,0 km/h (0 Bft) 95,65 %
28.12.2020 06:08 3,5 C 2,2 C 1,1 C 97 % 977,5 hPa 0,0 l/m 0 min 0 min 0 W/m 0,0 km/h (0 Bft) 95,79 %
28.12.2020 06:10 3,5 C 2,2 C 1,1 C 97 % 977,5 hPa 0,0 l/m 0 min 0 min 0 W/m 0,0 km/h (0 Bft) 93,62 %
28.12.2020 06:12 3,5 C 2,2 C 1,1 C 97 % 977,5 hPa 0,0 l/m 0 min 0 min 0 W/m 0,0 km/h (0 Bft) 95,74 %
28.12.2020 06:14 3,5 C 2,2 C 1,1 C 97 % 977,5 hPa 0,0 l/m 0 min 0 min 0 W/m 0,0 km/h (0 Bft) 53,33 %
28.12.2020 06:16 3,4 C 2,2 C 1,1 C 97 % 977,5 hPa 0,0 l/m 0 min 0 min 0 W/m 0,0 km/h (0 Bft) 93,62 %
28.12.2020 06:18 3,4 C 2,2 C 0,5 C 97 % 977,5 hPa 0,0 l/m 0 min 0 min 0 W/m 0,0 km/h (0 Bft) 95,74 %
28.12.2020 06:20 3,4 C 2,2 C 0,5 C 97 % 977,5 hPa 0,0 l/m 0 min 0 min 0 W/m 0,0 km/h (0 Bft) 93,62 %
28.12.2020 06:22 3,4 C 2,2 C 0,5 C 97 % 977,5 hPa 0,0 l/m 0 min 0 min 0 W/m 0,0 km/h (0 Bft) 95,74 %
28.12.2020 06:24 3,4 C 1,7 C 0,5 C 97 % 977,5 hPa 0,0 l/m 0 min 0 min 0 W/m 0,0 km/h (0 Bft) 89,36 %
28.12.2020 06:26 3,4 C 1,7 C 0,5 C 97 % 977,4 hPa 0,0 l/m 0 min 0 min 0 W/m 0,0 km/h (0 Bft) 95,65 %
28.12.2020 06:28 3,3 C 1,7 C 0,5 C 97 % 977,5 hPa 0,0 l/m 0 min 0 min 0 W/m 0,0 km/h (0 Bft) 95,74 %
28.12.2020 06:30 3,3 C 1,7 C 0,5 C 97 % 977,5 hPa 0,0 l/m 0 min 0 min 0 W/m 0,0 km/h (0 Bft) 97,87 %
28.12.2020 06:32 3,3 C 1,7 C 0,5 C 97 % 977,5 hPa 0,0 l/m 0 min 0 min 0 W/m 0,0 km/h (0 Bft) 93,62 %
28.12.2020 06:34 3,3 C 1,7 C 0,5 C 97 % 977,5 hPa 0,0 l/m 0 min 0 min 0 W/m 0,0 km/h (0 Bft) 97,73 %
28.12.2020 06:36 3,2 C 1,7 C 0,5 C 97 % 977,5 hPa 0,0 l/m 0 min 0 min 0 W/m 0,0 km/h (0 Bft) 97,87 %
28.12.2020 06:38 3,1 C 1,7 C 0,5 C 97 % 977,6 hPa 0,0 l/m 0 min 0 min 0 W/m 0,0 km/h (0 Bft) 95,92 %
28.12.2020 06:40 3,1 C 1,1 C 0,5 C 97 % 977,6 hPa 0,0 l/m 0 min 0 min 0 W/m 0,0 km/h (0 Bft) 95,92 %
28.12.2020 06:42 3,0 C 1,1 C 0,5 C 97 % 977,6 hPa 0,0 l/m 0 min 0 min 0 W/m 0,0 km/h (0 Bft) 93,62 %
28.12.2020 06:44 3,0 C 1,1 C 0,5 C 97 % 977,7 hPa 0,0 l/m 0 min 0 min 0 W/m 0,0 km/h (0 Bft) 95,74 %
28.12.2020 06:46 3,0 C 1,1 C -0,1 C 97 % 977,6 hPa 0,0 l/m 0 min 0 min 0 W/m 0,0 km/h (0 Bft) 95,74 %
28.12.2020 06:48 3,0 C 1,1 C -0,1 C 97 % 977,6 hPa 0,0 l/m 0 min 0 min 0 W/m 0,0 km/h (0 Bft) 95,74 %
28.12.2020 06:50 2,9 C 1,1 C -0,1 C 97 % 977,7 hPa 0,0 l/m 0 min 0 min 0 W/m 0,0 km/h (0 Bft) 95,65 %
28.12.2020 06:52 2,9 C 1,1 C -0,1 C 97 % 977,8 hPa 0,0 l/m 0 min 0 min 0 W/m 0,0 km/h (0 Bft) 95,74 %
28.12.2020 06:54 2,9 C 1,1 C -0,1 C 97 % 977,9 hPa 0,0 l/m 0 min 0 min 0 W/m 0,0 km/h (0 Bft) 93,62 %
28.12.2020 06:56 2,8 C 1,1 C -0,1 C 97 % 977,8 hPa 0,0 l/m 0 min 0 min 0 W/m 0,0 km/h (0 Bft) 95,74 %
28.12.2020 06:58 2,8 C 1,1 C 0,5 C 97 % 977,8 hPa 0,0 l/m 0 min 0 min 0 W/m 0,0 km/h (0 Bft) 91,49 %
28.12.2020 07:00 2,7 C 1,7 C 0,5 C 97 % 977,8 hPa 0,0 l/m 0 min 0 min 0 W/m 0,0 km/h (0 Bft) 95,65 %
28.12.2020 07:02 2,7 C 1,7 C 0,5 C 96 % 977,8 hPa 0,0 l/m 0 min 0 min 0 W/m 0,0 km/h (0 Bft) 95,74 %
28.12.2020 07:04 2,6 C 1,7 C 0,5 C 96 % 977,8 hPa 0,0 l/m 0 min 0 min 0 W/m 0,0 km/h (0 Bft) 95,74 %
28.12.2020 07:06 2,6 C 1,7 C 0,5 C 96 % 977,9 hPa 0,0 l/m 0 min 0 min 0 W/m 0,0 km/h (0 Bft) 57,45 %
28.12.2020 07:08 2,6 C 1,7 C 0,5 C 96 % 977,9 hPa 0,0 l/m 0 min 0 min 0 W/m 0,0 km/h (0 Bft) 95,74 %
28.12.2020 07:10 2,6 C 1,7 C 0,5 C 96 % 977,9 hPa 0,0 l/m 0 min 0 min 0 W/m 0,0 km/h (0 Bft) 93,62 %
28.12.2020 07:12 2,6 C 1,7 C 0,5 C 96 % 977,9 hPa 0,0 l/m 0 min 0 min 0 W/m 0,0 km/h (0 Bft) 93,48 %
28.12.2020 07:14 2,5 C 1,7 C 0,5 C 96 % 977,9 hPa 0,0 l/m 0 min 0 min 0 W/m 0,0 km/h (0 Bft) 97,87 %
28.12.2020 07:16 2,5 C 1,7 C 0,5 C 97 % 977,9 hPa 0,0 l/m 0 min 0 min 0 W/m 0,0 km/h (0 Bft) 97,87 %
28.12.2020 07:18 2,5 C 1,7 C 0,5 C 97 % 977,9 hPa 0,0 l/m 0 min 0 min 0 W/m 0,0 km/h (0 Bft) 97,87 %
28.12.2020 07:20 2,5 C 1,7 C 0,5 C 97 % 977,9 hPa 0,0 l/m 0 min 0 min 0 W/m 0,0 km/h (0 Bft) 95,74 %
28.12.2020 07:22 2,5 C 1,7 C 0,5 C 97 % 977,9 hPa 0,0 l/m 0 min 0 min 0 W/m 0,0 km/h (0 Bft) 100,00 %
28.12.2020 07:24 2,5 C 1,7 C 0,5 C 97 % 977,9 hPa 0,0 l/m 0 min 0 min 0 W/m 0,0 km/h (0 Bft) 100,00 %
28.12.2020 07:26 2,5 C 1,7 C 0,5 C 97 % 977,9 hPa 0,0 l/m 0 min 0 min 0 W/m 0,0 km/h (0 Bft) 100,00 %
28.12.2020 07:28 2,5 C 1,7 C 0,5 C 97 % 978,0 hPa 0,0 l/m 0 min 0 min 0 W/m 0,0 km/h (0 Bft) 100,00 %
28.12.2020 07:30 2,5 C 1,7 C 0,5 C 97 % 978,0 hPa 0,0 l/m 0 min 0 min 0 W/m 0,0 km/h (0 Bft) 100,00 %
28.12.2020 07:32 2,5 C 1,1 C 0,5 C 97 % 978,0 hPa 0,0 l/m 0 min 0 min 0 W/m 0,0 km/h (0 Bft) 97,87 %
28.12.2020 07:34 2,4 C 1,7 C 0,5 C 96 % 978,0 hPa 0,0 l/m 0 min 0 min 0 W/m 0,0 km/h (0 Bft) 100,00 %
28.12.2020 07:36 2,4 C 1,7 C 0,5 C 96 % 978,0 hPa 0,0 l/m 0 min 0 min 0 W/m 0,0 km/h (0 Bft) 100,00 %
28.12.2020 07:38 2,4 C 1,7 C 0,5 C 96 % 978,0 hPa 0,0 l/m 0 min 0 min 0 W/m 0,0 km/h (0 Bft) 100,00 %
28.12.2020 07:40 2,4 C 1,1 C 0,5 C 97 % 978,0 hPa 0,0 l/m 0 min 0 min 0 W/m 0,0 km/h (0 Bft) 100,00 %
28.12.2020 07:42 2,4 C 1,1 C 0,5 C 97 % 978,0 hPa 0,0 l/m 0 min 0 min 0 W/m 0,0 km/h (0 Bft) 97,87 %
28.12.2020 07:44 2,4 C 1,1 C 0,5 C 97 % 978,0 hPa 0,0 l/m 0 min 0 min 0 W/m 0,0 km/h (0 Bft) 100,00 %
28.12.2020 07:46 2,4 C 1,1 C 0,5 C 97 % 978,0 hPa 0,0 l/m 0 min 0 min 0 W/m 0,0 km/h (0 Bft) 100,00 %
28.12.2020 07:48 2,4 C 1,1 C -0,1 C 97 % 977,9 hPa 0,0 l/m 0 min 0 min 0 W/m 0,0 km/h (0 Bft) 100,00 %
28.12.2020 07:50 2,4 C 1,1 C -0,1 C 97 % 978,0 hPa 0,0 l/m 0 min 0 min 0 W/m 0,0 km/h (0 Bft) 100,00 %
28.12.2020 07:52 2,4 C 1,1 C -0,1 C 97 % 978,0 hPa 0,0 l/m 0 min 0 min 0 W/m 0,0 km/h (0 Bft) 100,00 %
28.12.2020 07:54 2,4 C 1,1 C -0,1 C 97 % 978,0 hPa 0,0 l/m 0 min 0 min 0 W/m 0,0 km/h (0 Bft) 100,00 %
28.12.2020 07:56 2,3 C 1,1 C -0,1 C 97 % 978,1 hPa 0,0 l/m 0 min 0 min 0 W/m 0,0 km/h (0 Bft) 100,00 %
28.12.2020 07:58 2,3 C 1,1 C -0,1 C 97 % 978,1 hPa 0,0 l/m 0 min 0 min 0 W/m 0,0 km/h (0 Bft) 100,00 %
28.12.2020 08:00 2,3 C 1,1 C -0,1 C 97 % 978,1 hPa 0,0 l/m 0 min 0 min 0 W/m 0,0 km/h (0 Bft) 97,87 %
28.12.2020 08:02 2,3 C 1,1 C -0,1 C 97 % 978,1 hPa 0,0 l/m 0 min 0 min 0 W/m 0,0 km/h (0 Bft) 100,00 %
28.12.2020 08:04 2,3 C 1,1 C -0,1 C 97 % 978,1 hPa 0,0 l/m 0 min 0 min 0 W/m 0,0 km/h (0 Bft) 97,87 %
28.12.2020 08:06 2,3 C 1,1 C -0,1 C 97 % 978,1 hPa 0,0 l/m 0 min 0 min 0 W/m 0,0 km/h (0 Bft) 95,74 %
28.12.2020 08:08 2,2 C 1,1 C -0,1 C 97 % 978,1 hPa 0,0 l/m 0 min 0 min 0 W/m 0,0 km/h (0 Bft) 97,87 %
28.12.2020 08:10 2,2 C 1,1 C -0,1 C 97 % 978,1 hPa 0,0 l/m 0 min 0 min 0 W/m 0,0 km/h (0 Bft) 100,00 %
28.12.2020 08:12 2,2 C 1,1 C -0,1 C 97 % 978,1 hPa 0,0 l/m 0 min 0 min 0 W/m 0,0 km/h (0 Bft) 100,00 %
28.12.2020 08:14 2,1 C 1,1 C -0,1 C 97 % 978,1 hPa 0,0 l/m 0 min 0 min 0 W/m 0,0 km/h (0 Bft) 100,00 %
28.12.2020 08:16 2,1 C 1,1 C -0,1 C 97 % 978,1 hPa 0,0 l/m 0 min 0 min 0 W/m 0,0 km/h (0 Bft) 100,00 %
28.12.2020 08:18 2,1 C 1,1 C -0,1 C 97 % 978,1 hPa 0,0 l/m 0 min 0 min 0 W/m 0,0 km/h (0 Bft) 100,00 %
28.12.2020 08:20 2,1 C 1,1 C -0,1 C 97 % 978,2 hPa 0,0 l/m 0 min 0 min 0 W/m 0,0 km/h (0 Bft) 100,00 %
28.12.2020 08:22 2,0 C 1,1 C -0,1 C 97 % 978,3 hPa 0,0 l/m 0 min 0 min 0 W/m 0,0 km/h (0 Bft) 100,00 %
28.12.2020 08:24 2,0 C 0,6 C -0,1 C 97 % 978,3 hPa 0,0 l/m 0 min 0 min 0 W/m 0,0 km/h (0 Bft) 100,00 %
28.12.2020 08:26 2,0 C 1,1 C -0,1 C 97 % 978,3 hPa 0,0 l/m 0 min 0 min 0 W/m 0,0 km/h (0 Bft) 100,00 %
28.12.2020 08:28 2,0 C 1,1 C -0,1 C 97 % 978,3 hPa 0,0 l/m 0 min 0 min 0 W/m 0,0 km/h (0 Bft) 100,00 %
28.12.2020 08:30 2,0 C 1,1 C -0,1 C 97 % 978,3 hPa 0,0 l/m 0 min 0 min 0 W/m 0,0 km/h (0 Bft) 100,00 %
28.12.2020 08:32 2,0 C 1,1 C -0,1 C 97 % 978,4 hPa 0,0 l/m 0 min 0 min 0 W/m 0,0 km/h (0 Bft) 100,00 %
28.12.2020 08:34 1,9 C 1,1 C -0,1 C 97 % 978,5 hPa 0,0 l/m 0 min 0 min 0 W/m 0,0 km/h (0 Bft) 100,00 %
28.12.2020 08:36 1,9 C 1,1 C -0,1 C 97 % 978,5 hPa 0,0 l/m 0 min 0 min 0 W/m 0,0 km/h (0 Bft) 97,87 %
28.12.2020 08:38 1,9 C 1,1 C -0,1 C 97 % 978,4 hPa 0,0 l/m 0 min 0 min 0 W/m 0,0 km/h (0 Bft) 100,00 %
28.12.2020 08:40 1,9 C 1,1 C -0,1 C 97 % 978,4 hPa 0,0 l/m 0 min 0 min 0 W/m 0,0 km/h (0 Bft) 100,00 %
28.12.2020 08:42 1,9 C 1,1 C -0,1 C 97 % 978,4 hPa 0,0 l/m 0 min 0 min 0 W/m 0,0 km/h (0 Bft) 97,87 %
28.12.2020 08:44 1,9 C 1,1 C -0,1 C 97 % 978,4 hPa 0,0 l/m 0 min 0 min 0 W/m 0,0 km/h (0 Bft) 97,83 %
28.12.2020 08:46 1,9 C 1,1 C -0,1 C 97 % 978,4 hPa 0,0 l/m 0 min 0 min 0 W/m 0,0 km/h (0 Bft) 95,74 %
28.12.2020 08:48 1,9 C 1,1 C -0,1 C 97 % 978,4 hPa 0,0 l/m 0 min 0 min 0 W/m 0,0 km/h (0 Bft) 97,87 %
28.12.2020 08:50 1,9 C 1,1 C -0,1 C 97 % 978,4 hPa 0,0 l/m 0 min 0 min 0 W/m 0,0 km/h (0 Bft) 93,62 %
28.12.2020 08:52 1,9 C 1,1 C -0,1 C 97 % 978,4 hPa 0,0 l/m 0 min 0 min 5 W/m 0,0 km/h (0 Bft) 97,87 %
28.12.2020 08:54 1,9 C 1,1 C -0,1 C 97 % 978,4 hPa 0,0 l/m 0 min 0 min 5 W/m 0,0 km/h (0 Bft) 95,74 %
28.12.2020 08:56 1,9 C 1,1 C -0,1 C 97 % 978,4 hPa 0,0 l/m 0 min 0 min 5 W/m 0,0 km/h (0 Bft) 100,00 %
28.12.2020 08:58 1,9 C 1,1 C -0,1 C 97 % 978,4 hPa 0,0 l/m 0 min 0 min 5 W/m 0,0 km/h (0 Bft) 97,87 %
28.12.2020 09:00 1,9 C 1,1 C -0,1 C 97 % 978,4 hPa 0,0 l/m 0 min 0 min 7 W/m 0,0 km/h (0 Bft) 95,74 %
28.12.2020 09:02 1,9 C 1,1 C -0,1 C 97 % 978,4 hPa 0,0 l/m 0 min 0 min 7 W/m 0,0 km/h (0 Bft) 93,62 %
28.12.2020 09:04 1,9 C 1,1 C -0,1 C 97 % 978,3 hPa 0,0 l/m 0 min 0 min 8 W/m 0,0 km/h (0 Bft) 95,74 %
28.12.2020 09:06 1,9 C 1,1 C -0,1 C 97 % 978,3 hPa 0,0 l/m 0 min 0 min 9 W/m 0,0 km/h (0 Bft) 95,74 %
28.12.2020 09:08 1,9 C 1,1 C -0,1 C 97 % 978,3 hPa 0,0 l/m 0 min 0 min 9 W/m 0,0 km/h (0 Bft) 95,65 %
28.12.2020 09:10 1,9 C 1,1 C -0,1 C 97 % 978,3 hPa 0,0 l/m 0 min 0 min 9 W/m 0,0 km/h (0 Bft) 95,74 %
28.12.2020 09:12 1,9 C 1,1 C -0,1 C 97 % 978,3 hPa 0,0 l/m 0 min 0 min 11 W/m 0,0 km/h (0 Bft) 93,62 %
28.12.2020 09:14 1,9 C 1,1 C -0,1 C 97 % 978,3 hPa 0,0 l/m 0 min 0 min 11 W/m 0,0 km/h (0 Bft) 93,62 %
28.12.2020 09:16 1,9 C 1,1 C -0,1 C 97 % 978,4 hPa 0,0 l/m 0 min 0 min 11 W/m 0,0 km/h (0 Bft) 95,74 %
28.12.2020 09:18 2,0 C 1,1 C -0,1 C 97 % 978,4 hPa 0,0 l/m 0 min 0 min 12 W/m 0,0 km/h (0 Bft) 95,74 %
28.12.2020 09:20 2,0 C 1,1 C -0,1 C 97 % 978,4 hPa 0,0 l/m 0 min 0 min 13 W/m 0,0 km/h (0 Bft) 95,65 %
28.12.2020 09:22 2,0 C 1,1 C -0,1 C 97 % 978,4 hPa 0,0 l/m 0 min 0 min 14 W/m 0,0 km/h (0 Bft) 93,62 %
28.12.2020 09:24 2,0 C 1,1 C -0,1 C 97 % 978,3 hPa 0,0 l/m 0 min 0 min 15 W/m 0,0 km/h (0 Bft) 95,74 %
28.12.2020 09:26 2,0 C 1,1 C -0,1 C 97 % 978,3 hPa 0,0 l/m 0 min 0 min 17 W/m 0,0 km/h (0 Bft) 93,62 %
28.12.2020 09:28 2,0 C 1,1 C -0,1 C 97 % 978,4 hPa 0,0 l/m 0 min 0 min 19 W/m 0,0 km/h (0 Bft) 91,49 %
28.12.2020 09:30 2,0 C 1,7 C -0,1 C 97 % 978,5 hPa 0,0 l/m 0 min 0 min 20 W/m 0,0 km/h (0 Bft) 97,87 %
28.12.2020 09:32 2,0 C 1,7 C -0,1 C 97 % 978,4 hPa 0,0 l/m 0 min 0 min 21 W/m 0,0 km/h (0 Bft) 97,83 %
28.12.2020 09:34 2,0 C 1,7 C -0,1 C 97 % 978,5 hPa 0,0 l/m 0 min 0 min 22 W/m 0,0 km/h (0 Bft) 89,36 %
28.12.2020 09:36 2,0 C 1,7 C 0,5 C 97 % 978,5 hPa 0,0 l/m 0 min 0 min 23 W/m 0,0 km/h (0 Bft) 54,05 %
28.12.2020 09:38 2,0 C 1,7 C 0,5 C 97 % 978,5 hPa 0,0 l/m 0 min 0 min 25 W/m 0,0 km/h (0 Bft) 97,87 %
28.12.2020 09:40 2,0 C 1,7 C 0,5 C 97 % 978,5 hPa 0,0 l/m 0 min 0 min 27 W/m 3,2 km/h (1 Bft) 97,62 %
28.12.2020 09:42 2,1 C 1,7 C 0,5 C 97 % 978,5 hPa 0,0 l/m 0 min 0 min 31 W/m 0,0 km/h (0 Bft) 97,87 %
28.12.2020 09:44 2,1 C 1,7 C 0,5 C 97 % 978,6 hPa 0,0 l/m 0 min 0 min 37 W/m 0,0 km/h (0 Bft) 97,83 %
28.12.2020 09:46 2,1 C 2,2 C 0,5 C 97 % 978,6 hPa 0,0 l/m 0 min 0 min 39 W/m 0,0 km/h (0 Bft) 97,92 %
28.12.2020 09:48 2,2 C 2,2 C 0,5 C 97 % 978,6 hPa 0,0 l/m 0 min 0 min 35 W/m 0,0 km/h (0 Bft) 100,00 %
28.12.2020 09:50 2,3 C 2,2 C 0,5 C 97 % 978,6 hPa 0,0 l/m 0 min 0 min 32 W/m 0,0 km/h (0 Bft) 100,00 %
28.12.2020 09:52 2,3 C 2,2 C 0,5 C 97 % 978,6 hPa 0,0 l/m 0 min 0 min 35 W/m 0,0 km/h (0 Bft) 100,00 %
28.12.2020 09:54 2,3 C 2,2 C 0,5 C 97 % 978,6 hPa 0,0 l/m 0 min 0 min 40 W/m 0,0 km/h (0 Bft) 100,00 %
28.12.2020 09:56 2,4 C 2,2 C 0,5 C 97 % 978,7 hPa 0,0 l/m 0 min 0 min 44 W/m 0,0 km/h (0 Bft) 100,00 %
28.12.2020 09:58 2,4 C 2,2 C 1,1 C 97 % 978,7 hPa 0,0 l/m 0 min 0 min 54 W/m 0,0 km/h (0 Bft) 100,00 %
28.12.2020 10:00 2,4 C 2,2 C 1,1 C 97 % 978,8 hPa 0,0 l/m 0 min 0 min 60 W/m 0,0 km/h (0 Bft) 97,87 %
28.12.2020 10:02 2,5 C 2,2 C 1,1 C 97 % 978,9 hPa 0,0 l/m 0 min 0 min 60 W/m 3,2 km/h (1 Bft) 100,00 %
28.12.2020 10:04 2,5 C 2,2 C 1,1 C 97 % 978,9 hPa 0,0 l/m 0 min 0 min 58 W/m 12,9 km/h (3 Bft) 100,00 %
28.12.2020 10:06 2,5 C 2,2 C 1,1 C 97 % 978,9 hPa 0,0 l/m 0 min 0 min 60 W/m 0,0 km/h (0 Bft) 100,00 %
28.12.2020 10:08 2,6 C 2,2 C 1,1 C 97 % 978,9 hPa 0,0 l/m 0 min 0 min 56 W/m 3,2 km/h (1 Bft) 100,00 %
28.12.2020 10:10 2,6 C 2,8 C 1,1 C 97 % 978,9 hPa 0,0 l/m 0 min 0 min 50 W/m 0,0 km/h (0 Bft) 95,74 %
28.12.2020 10:12 2,6 C 2,8 C 1,1 C 97 % 978,9 hPa 0,0 l/m 0 min 0 min 47 W/m 3,2 km/h (1 Bft) 100,00 %
28.12.2020 10:14 2,7 C 2,8 C 1,1 C 97 % 978,9 hPa 0,0 l/m 0 min 0 min 46 W/m 3,2 km/h (1 Bft) 100,00 %
28.12.2020 10:16 2,8 C 2,8 C 1,1 C 97 % 978,9 hPa 0,0 l/m 0 min 0 min 44 W/m 0,0 km/h (0 Bft) 97,87 %
28.12.2020 10:18 2,8 C 2,8 C 1,1 C 97 % 978,8 hPa 0,0 l/m 0 min 0 min 42 W/m 0,0 km/h (0 Bft) 100,00 %
28.12.2020 10:20 2,8 C 2,8 C 1,1 C 97 % 978,8 hPa 0,0 l/m 0 min 0 min 41 W/m 0,0 km/h (0 Bft) 100,00 %
28.12.2020 10:22 2,9 C 2,8 C 1,1 C 97 % 978,8 hPa 0,0 l/m 0 min 0 min 40 W/m 0,0 km/h (0 Bft) 100,00 %
28.12.2020 10:24 2,9 C 2,8 C 1,1 C 97 % 978,8 hPa 0,0 l/m 0 min 0 min 39 W/m 0,0 km/h (0 Bft) 100,00 %
28.12.2020 10:26 2,9 C 2,8 C 1,1 C 97 % 978,7 hPa 0,0 l/m 0 min 0 min 39 W/m 0,0 km/h (0 Bft) 100,00 %
28.12.2020 10:28 2,9 C 2,8 C 1,1 C 97 % 978,7 hPa 0,0 l/m 0 min 0 min 39 W/m 6,4 km/h (2 Bft) 100,00 %
28.12.2020 10:30 3,0 C 2,8 C 1,1 C 97 % 978,7 hPa 0,0 l/m 0 min 0 min 40 W/m 12,9 km/h (3 Bft) 100,00 %
28.12.2020 10:32 3,0 C 2,8 C 1,1 C 97 % 978,7 hPa 0,0 l/m 0 min 0 min 41 W/m 3,2 km/h (1 Bft) 100,00 %
28.12.2020 10:34 3,0 C 2,8 C 1,1 C 97 % 978,8 hPa 0,0 l/m 0 min 0 min 42 W/m 6,4 km/h (2 Bft) 100,00 %
28.12.2020 10:36 3,0 C 2,8 C 1,6 C 97 % 978,7 hPa 0,0 l/m 0 min 0 min 41 W/m 0,0 km/h (0 Bft) 100,00 %
28.12.2020 10:38 3,1 C 2,8 C 1,6 C 97 % 978,7 hPa 0,0 l/m 0 min 0 min 40 W/m 3,2 km/h (1 Bft) 100,00 %
28.12.2020 10:40 3,1 C 2,8 C 1,6 C 97 % 978,7 hPa 0,0 l/m 0 min 0 min 40 W/m 0,0 km/h (0 Bft) 97,87 %
28.12.2020 10:42 3,1 C 2,8 C 1,6 C 97 % 978,6 hPa 0,0 l/m 0 min 0 min 40 W/m 0,0 km/h (0 Bft) 100,00 %
28.12.2020 10:44 3,1 C 2,8 C 1,6 C 97 % 978,6 hPa 0,0 l/m 0 min 0 min 40 W/m 0,0 km/h (0 Bft) 97,73 %
28.12.2020 10:46 3,2 C 2,8 C 1,6 C 97 % 978,6 hPa 0,0 l/m 0 min 0 min 41 W/m 0,0 km/h (0 Bft) 97,87 %
28.12.2020 10:48 3,3 C 2,8 C 1,6 C 97 % 978,6 hPa 0,0 l/m 0 min 0 min 42 W/m 0,0 km/h (0 Bft) 100,00 %
28.12.2020 10:50 3,3 C 2,8 C 1,6 C 97 % 978,6 hPa 0,0 l/m 0 min 0 min 42 W/m 3,2 km/h (1 Bft) 100,00 %
28.12.2020 10:52 3,3 C 2,8 C 1,6 C 96 % 978,6 hPa 0,0 l/m 0 min 0 min 42 W/m 0,0 km/h (0 Bft) 100,00 %
28.12.2020 10:54 3,4 C 2,8 C 1,6 C 96 % 978,6 hPa 0,0 l/m 0 min 0 min 40 W/m 0,0 km/h (0 Bft) 100,00 %
28.12.2020 10:56 3,4 C 3,3 C 1,6 C 96 % 978,5 hPa 0,0 l/m 0 min 0 min 40 W/m 3,2 km/h (1 Bft) 100,00 %
28.12.2020 10:58 3,4 C 3,3 C 1,6 C 96 % 978,5 hPa 0,0 l/m 0 min 0 min 40 W/m 0,0 km/h (0 Bft) 100,00 %
28.12.2020 11:00 3,5 C 3,3 C 1,6 C 96 % 978,5 hPa 0,0 l/m 0 min 0 min 39 W/m 3,2 km/h (1 Bft) 97,92 %
28.12.2020 11:02 3,5 C 3,3 C 1,6 C 96 % 978,6 hPa 0,0 l/m 0 min 0 min 38 W/m 3,2 km/h (1 Bft) 95,83 %
28.12.2020 11:04 3,5 C 3,3 C 1,6 C 96 % 978,5 hPa 0,0 l/m 0 min 0 min 36 W/m 0,0 km/h (0 Bft) 100,00 %
28.12.2020 11:06 3,6 C 3,3 C 1,6 C 96 % 978,6 hPa 0,0 l/m 0 min 0 min 35 W/m 0,0 km/h (0 Bft) 100,00 %
28.12.2020 11:08 3,6 C 3,3 C 1,6 C 96 % 978,6 hPa 0,0 l/m 0 min 0 min 35 W/m 3,2 km/h (1 Bft) 100,00 %
28.12.2020 11:10 3,6 C 3,3 C 1,6 C 96 % 978,6 hPa 0,0 l/m 0 min 0 min 35 W/m 0,0 km/h (0 Bft) 100,00 %
28.12.2020 11:12 3,7 C 3,3 C 1,6 C 96 % 978,6 hPa 0,0 l/m 0 min 0 min 35 W/m 3,2 km/h (1 Bft) 97,87 %
28.12.2020 11:14 3,7 C 3,3 C 1,6 C 96 % 978,6 hPa 0,0 l/m 0 min 0 min 35 W/m 0,0 km/h (0 Bft) 100,00 %
28.12.2020 11:16 3,8 C 3,3 C 1,6 C 95 % 978,6 hPa 0,0 l/m 0 min 0 min 36 W/m 3,2 km/h (1 Bft) 100,00 %
28.12.2020 11:18 3,8 C 3,3 C 1,6 C 95 % 978,6 hPa 0,0 l/m 0 min 0 min 38 W/m 0,0 km/h (0 Bft) 95,65 %
28.12.2020 11:20 3,8 C 3,3 C 1,6 C 95 % 978,7 hPa 0,0 l/m 0 min 0 min 39 W/m 0,0 km/h (0 Bft) 100,00 %
28.12.2020 11:22 3,8 C 3,3 C 1,6 C 95 % 978,6 hPa 0,0 l/m 0 min 0 min 43 W/m 0,0 km/h (0 Bft) 97,87 %
28.12.2020 11:24 3,9 C 3,3 C 1,6 C 95 % 978,6 hPa 0,0 l/m 0 min 0 min 62 W/m 0,0 km/h (0 Bft) 91,49 %
28.12.2020 11:26 3,9 C 3,3 C 1,6 C 95 % 978,6 hPa 0,0 l/m 0 min 0 min 52 W/m 0,0 km/h (0 Bft) 97,87 %
28.12.2020 11:28 3,9 C 3,3 C 1,6 C 95 % 978,6 hPa 0,0 l/m 0 min 0 min 46 W/m 0,0 km/h (0 Bft) 95,74 %
28.12.2020 11:30 3,9 C 3,3 C 1,6 C 94 % 978,6 hPa 0,0 l/m 0 min 0 min 41 W/m 0,0 km/h (0 Bft) 95,65 %
28.12.2020 11:32 3,9 C 3,3 C 1,6 C 94 % 978,6 hPa 0,0 l/m 0 min 0 min 41 W/m 0,0 km/h (0 Bft) 100,00 %
28.12.2020 11:34 3,9 C 3,3 C 1,6 C 94 % 978,6 hPa 0,0 l/m 0 min 0 min 43 W/m 3,2 km/h (1 Bft) 96,23 %
28.12.2020 11:36 3,9 C 3,3 C 1,6 C 94 % 978,5 hPa 0,0 l/m 0 min 0 min 35 W/m 0,0 km/h (0 Bft) 95,74 %
28.12.2020 11:38 3,9 C 3,3 C 1,6 C 94 % 978,6 hPa 0,0 l/m 0 min 0 min 36 W/m 0,0 km/h (0 Bft) 95,74 %
28.12.2020 11:40 3,9 C 3,3 C 1,6 C 94 % 978,5 hPa 0,0 l/m 0 min 0 min 39 W/m 0,0 km/h (0 Bft) 95,74 %
28.12.2020 11:42 3,9 C 3,3 C 1,6 C 94 % 978,4 hPa 0,0 l/m 0 min 0 min 40 W/m 0,0 km/h (0 Bft) 95,74 %
28.12.2020 11:44 3,9 C 3,3 C 1,6 C 94 % 978,4 hPa 0,0 l/m 0 min 0 min 43 W/m 0,0 km/h (0 Bft) 95,83 %
28.12.2020 11:46 3,9 C 3,3 C 2,2 C 94 % 978,3 hPa 0,0 l/m 0 min 0 min 46 W/m 0,0 km/h (0 Bft) 96,08 %
28.12.2020 11:48 3,9 C 3,3 C 2,2 C 94 % 978,3 hPa 0,0 l/m 0 min 0 min 50 W/m 0,0 km/h (0 Bft) 93,62 %
28.12.2020 11:50 3,9 C 3,3 C 2,2 C 94 % 978,2 hPa 0,0 l/m 0 min 0 min 57 W/m 0,0 km/h (0 Bft) 95,74 %
28.12.2020 11:52 3,9 C 3,3 C 2,2 C 94 % 978,2 hPa 0,0 l/m 0 min 0 min 62 W/m 0,0 km/h (0 Bft) 95,65 %
28.12.2020 11:54 3,9 C 3,3 C 2,2 C 94 % 978,2 hPa 0,0 l/m 0 min 0 min 70 W/m 0,0 km/h (0 Bft) 95,74 %
28.12.2020 11:56 3,9 C 3,3 C 2,2 C 93 % 978,3 hPa 0,0 l/m 0 min 0 min 75 W/m 0,0 km/h (0 Bft) 95,74 %
28.12.2020 11:58 3,9 C 3,3 C 2,2 C 93 % 978,4 hPa 0,0 l/m 0 min 0 min 80 W/m 0,0 km/h (0 Bft) 95,74 %
28.12.2020 12:00 3,9 C 3,3 C 2,2 C 93 % 978,4 hPa 0,0 l/m 0 min 0 min 84 W/m 0,0 km/h (0 Bft) 91,49 %
28.12.2020 12:02 3,9 C 3,3 C 2,2 C 93 % 978,5 hPa 0,0 l/m 0 min 0 min 86 W/m 0,0 km/h (0 Bft) 97,14 %
28.12.2020 12:04 4,0 C 3,3 C 2,2 C 93 % 978,4 hPa 0,0 l/m 0 min 0 min 86 W/m 0,0 km/h (0 Bft) 94,44 %
28.12.2020 12:08 4,0 C 3,3 C 2,2 C 93 % 978,5 hPa 0,0 l/m 0 min 0 min 88 W/m 0,0 km/h (0 Bft) 94,68 %
28.12.2020 12:10 4,0 C 3,3 C 2,2 C 93 % 978,5 hPa 0,0 l/m 0 min 0 min 90 W/m 3,2 km/h (1 Bft) 97,87 %
28.12.2020 12:12 4,0 C 3,3 C 2,2 C 93 % 978,5 hPa 0,0 l/m 0 min 0 min 92 W/m 3,2 km/h (1 Bft) 97,87 %
28.12.2020 12:14 4,0 C 3,3 C 2,2 C 93 % 978,5 hPa 0,0 l/m 0 min 0 min 93 W/m 3,2 km/h (1 Bft) 97,92 %
28.12.2020 12:16 4,0 C 3,3 C 2,2 C 93 % 978,4 hPa 0,0 l/m 0 min 0 min 93 W/m 3,2 km/h (1 Bft) 97,83 %
28.12.2020 12:18 4,0 C 3,3 C 2,2 C 93 % 978,5 hPa 0,0 l/m 0 min 0 min 94 W/m 0,0 km/h (0 Bft) 97,87 %
28.12.2020 12:20 4,0 C 3,3 C 2,2 C 93 % 978,6 hPa 0,0 l/m 0 min 0 min 96 W/m 3,2 km/h (1 Bft) 93,62 %
28.12.2020 12:22 4,1 C 3,3 C 2,2 C 93 % 978,6 hPa 0,0 l/m 0 min 0 min 98 W/m 3,2 km/h (1 Bft) 95,74 %
28.12.2020 12:24 4,1 C 3,3 C 2,2 C 93 % 978,6 hPa 0,0 l/m 0 min 0 min 98 W/m 3,2 km/h (1 Bft) 97,87 %
28.12.2020 12:26 4,1 C 3,3 C 2,2 C 93 % 978,5 hPa 0,0 l/m 0 min 0 min 98 W/m 0,0 km/h (0 Bft) 100,00 %
28.12.2020 12:28 4,1 C 3,9 C 2,2 C 93 % 978,6 hPa 0,0 l/m 0 min 0 min 98 W/m 0,0 km/h (0 Bft) 100,00 %
28.12.2020 12:30 4,1 C 3,9 C 2,2 C 92 % 978,6 hPa 0,0 l/m 0 min 0 min 96 W/m 3,2 km/h (1 Bft) 100,00 %
28.12.2020 12:32 4,2 C 3,9 C 2,2 C 93 % 978,6 hPa 0,0 l/m 0 min 0 min 93 W/m 0,0 km/h (0 Bft) 100,00 %
28.12.2020 12:34 4,2 C 3,9 C 2,2 C 92 % 978,5 hPa 0,0 l/m 0 min 0 min 89 W/m 0,0 km/h (0 Bft) 100,00 %
28.12.2020 12:36 4,2 C 3,9 C 2,2 C 92 % 978,5 hPa 0,0 l/m 0 min 0 min 88 W/m 3,2 km/h (1 Bft) 100,00 %
28.12.2020 12:38 4,2 C 3,9 C 2,2 C 92 % 978,4 hPa 0,0 l/m 0 min 0 min 90 W/m 3,2 km/h (1 Bft) 97,87 %
28.12.2020 12:40 4,3 C 3,9 C 2,7 C 92 % 978,4 hPa 0,0 l/m 0 min 0 min 92 W/m 3,2 km/h (1 Bft) 100,00 %
28.12.2020 12:42 4,3 C 3,9 C 2,7 C 92 % 978,4 hPa 0,0 l/m 0 min 0 min 96 W/m 0,0 km/h (0 Bft) 97,87 %
28.12.2020 12:44 4,3 C 3,9 C 2,7 C 92 % 978,3 hPa 0,0 l/m 0 min 0 min 97 W/m 0,0 km/h (0 Bft) 100,00 %
28.12.2020 12:46 4,3 C 3,9 C 2,7 C 92 % 978,2 hPa 0,0 l/m 0 min 0 min 97 W/m 0,0 km/h (0 Bft) 100,00 %
28.12.2020 12:48 4,3 C 3,9 C 2,7 C 92 % 978,2 hPa 0,0 l/m 0 min 0 min 96 W/m 3,2 km/h (1 Bft) 97,67 %
28.12.2020 12:50 4,3 C 3,9 C 2,7 C 92 % 978,2 hPa 0,0 l/m 0 min 0 min 96 W/m 0,0 km/h (0 Bft) 97,87 %
28.12.2020 12:52 4,4 C 4,4 C 2,7 C 92 % 978,1 hPa 0,0 l/m 0 min 0 min 111 W/m 0,0 km/h (0 Bft) 95,65 %
28.12.2020 12:54 4,4 C 4,4 C 2,7 C 92 % 978,2 hPa 0,0 l/m 0 min 0 min 111 W/m 0,0 km/h (0 Bft) 97,96 %
28.12.2020 12:56 4,4 C 4,4 C 2,7 C 92 % 978,1 hPa 0,0 l/m 0 min 0 min 117 W/m 0,0 km/h (0 Bft) 97,87 %
28.12.2020 12:58 4,4 C 5,0 C 3,3 C 92 % 978,0 hPa 0,0 l/m 2 min 0 min 156 W/m 0,0 km/h (0 Bft) 97,87 %
28.12.2020 13:00 4,5 C 5,6 C 3,8 C 92 % 977,9 hPa 0,0 l/m 2 min 0 min 181 W/m 0,0 km/h (0 Bft) 97,87 %
28.12.2020 13:02 4,5 C 5,6 C 3,8 C 91 % 977,9 hPa 0,0 l/m 2 min 0 min 166 W/m 3,2 km/h (1 Bft) 97,96 %
28.12.2020 13:04 4,6 C 6,1 C 3,8 C 91 % 977,8 hPa 0,0 l/m 2 min 0 min 185 W/m 0,0 km/h (0 Bft) 97,87 %
28.12.2020 13:06 4,6 C 7,2 C 4,4 C 91 % 977,8 hPa 0,0 l/m 2 min 0 min 236 W/m 0,0 km/h (0 Bft) 97,87 %
28.12.2020 13:08 4,8 C 8,3 C 4,9 C 91 % 977,8 hPa 0,0 l/m 2 min 0 min 300 W/m 3,2 km/h (1 Bft) 95,74 %
28.12.2020 13:10 4,9 C 9,4 C 5,5 C 91 % 977,8 hPa 0,0 l/m 2 min 0 min 294 W/m 3,2 km/h (1 Bft) 97,87 %
28.12.2020 13:12 5,0 C 9,4 C 4,9 C 91 % 977,8 hPa 0,0 l/m 2 min 0 min 288 W/m 0,0 km/h (0 Bft) 97,87 %
28.12.2020 13:14 5,1 C 8,3 C 4,9 C 90 % 977,7 hPa 0,0 l/m 2 min 0 min 229 W/m 0,0 km/h (0 Bft) 100,00 %
28.12.2020 13:16 5,2 C 7,8 C 4,4 C 90 % 977,7 hPa 0,0 l/m 2 min 0 min 174 W/m 0,0 km/h (0 Bft) 95,74 %
28.12.2020 13:18 5,3 C 7,2 C 4,4 C 89 % 977,8 hPa 0,0 l/m 2 min 0 min 169 W/m 0,0 km/h (0 Bft) 96,23 %
28.12.2020 13:20 5,3 C 6,7 C 3,8 C 89 % 977,7 hPa 0,0 l/m 2 min 0 min 147 W/m 3,2 km/h (1 Bft) 95,74 %
28.12.2020 13:22 5,4 C 6,7 C 3,8 C 88 % 977,7 hPa 0,0 l/m 0 min 0 min 143 W/m 0,0 km/h (0 Bft) 97,87 %
28.12.2020 13:24 5,4 C 6,7 C 4,4 C 88 % 977,7 hPa 0,0 l/m 0 min 0 min 144 W/m 3,2 km/h (1 Bft) 97,92 %
28.12.2020 13:26 5,5 C 6,7 C 4,4 C 88 % 977,8 hPa 0,0 l/m 2 min 0 min 147 W/m 0,0 km/h (0 Bft) 97,83 %
28.12.2020 13:28 5,5 C 6,7 C 4,9 C 88 % 977,8 hPa 0,0 l/m 0 min 0 min 131 W/m 0,0 km/h (0 Bft) 97,87 %
28.12.2020 13:30 5,5 C 6,1 C 4,9 C 87 % 977,7 hPa 0,0 l/m 0 min 0 min 122 W/m 0,0 km/h (0 Bft) 97,87 %
28.12.2020 13:32 5,5 C 6,1 C 4,9 C 87 % 977,6 hPa 0,0 l/m 0 min 0 min 117 W/m 0,0 km/h (0 Bft) 97,92 %
28.12.2020 13:34 5,5 C 6,1 C 4,9 C 87 % 977,7 hPa 0,0 l/m 0 min 0 min 109 W/m 0,0 km/h (0 Bft) 97,87 %
28.12.2020 13:36 5,5 C 6,1 C 4,9 C 87 % 977,6 hPa 0,0 l/m 0 min 0 min 97 W/m 0,0 km/h (0 Bft) 97,87 %
28.12.2020 13:38 5,5 C 6,1 C 4,9 C 86 % 977,6 hPa 0,0 l/m 0 min 0 min 92 W/m 0,0 km/h (0 Bft) 56,52 %
28.12.2020 13:40 5,5 C 5,6 C 4,9 C 86 % 977,6 hPa 0,0 l/m 0 min 0 min 91 W/m 0,0 km/h (0 Bft) 95,83 %
28.12.2020 13:42 5,5 C 5,6 C 4,9 C 86 % 977,6 hPa 0,0 l/m 0 min 0 min 93 W/m 3,2 km/h (1 Bft) 97,14 %
28.12.2020 13:44 5,5 C 5,6 C 4,9 C 86 % 977,6 hPa 0,0 l/m 0 min 0 min 95 W/m 3,2 km/h (1 Bft) 98,18 %
28.12.2020 13:46 5,5 C 5,6 C 4,9 C 86 % 977,6 hPa 0,0 l/m 0 min 0 min 97 W/m 0,0 km/h (0 Bft) 97,92 %
28.12.2020 13:48 5,4 C 5,6 C 4,4 C 86 % 977,6 hPa 0,0 l/m 0 min 0 min 97 W/m 0,0 km/h (0 Bft) 97,92 %
28.12.2020 13:50 5,4 C 5,6 C 4,9 C 86 % 977,6 hPa 0,0 l/m 0 min 0 min 98 W/m 0,0 km/h (0 Bft) 95,35 %
28.12.2020 13:52 5,4 C 5,6 C 4,9 C 86 % 977,7 hPa 0,0 l/m 0 min 0 min 102 W/m 0,0 km/h (0 Bft) 89,80 %
28.12.2020 13:54 5,4 C 6,1 C 4,9 C 86 % 977,7 hPa 0,0 l/m 0 min 0 min 113 W/m 3,2 km/h (1 Bft) 95,74 %
28.12.2020 13:56 5,4 C 6,1 C 4,9 C 86 % 977,7 hPa 0,0 l/m 0 min 0 min 128 W/m 3,2 km/h (1 Bft) 95,83 %
28.12.2020 13:58 5,4 C 6,7 C 4,9 C 86 % 977,7 hPa 0,0 l/m 2 min 0 min 151 W/m 3,2 km/h (1 Bft) 91,84 %
28.12.2020 14:00 5,4 C 6,7 C 4,9 C 86 % 977,8 hPa 0,0 l/m 2 min 0 min 142 W/m 0,0 km/h (0 Bft) 95,65 %
28.12.2020 14:02 5,5 C 6,7 C 4,9 C 86 % 977,7 hPa 0,0 l/m 2 min 0 min 137 W/m 3,2 km/h (1 Bft) 95,74 %
28.12.2020 14:04 5,5 C 6,7 C 5,5 C 86 % 977,7 hPa 0,0 l/m 2 min 0 min 137 W/m 0,0 km/h (0 Bft) 96,00 %
28.12.2020 14:06 5,5 C 6,7 C 5,5 C 86 % 977,7 hPa 0,0 l/m 2 min 0 min 159 W/m 0,0 km/h (0 Bft) 94,29 %
28.12.2020 14:08 5,5 C 6,7 C 5,5 C 86 % 977,7 hPa 0,0 l/m 2 min 0 min 159 W/m 0,0 km/h (0 Bft) 95,74 %
28.12.2020 14:10 5,5 C 6,7 C 5,5 C 86 % 977,7 hPa 0,0 l/m 2 min 0 min 135 W/m 0,0 km/h (0 Bft) 93,62 %
28.12.2020 14:12 5,6 C 6,7 C 5,5 C 86 % 977,7 hPa 0,0 l/m 0 min 0 min 112 W/m 3,2 km/h (1 Bft) 98,15 %
28.12.2020 14:14 5,6 C 6,7 C 5,5 C 86 % 977,8 hPa 0,0 l/m 0 min 0 min 116 W/m 0,0 km/h (0 Bft) 93,75 %
28.12.2020 14:16 5,6 C 6,7 C 5,5 C 86 % 977,8 hPa 0,0 l/m 2 min 0 min 133 W/m 0,0 km/h (0 Bft) 95,83 %
28.12.2020 14:18 5,6 C 6,7 C 5,5 C 86 % 977,8 hPa 0,0 l/m 2 min 0 min 141 W/m 3,2 km/h (1 Bft) 97,92 %
28.12.2020 14:20 5,6 C 7,2 C 6,6 C 86 % 977,8 hPa 0,0 l/m 2 min 0 min 235 W/m 0,0 km/h (0 Bft) 95,74 %
28.12.2020 14:22 5,7 C 7,2 C 6,6 C 86 % 977,8 hPa 0,0 l/m 2 min 0 min 183 W/m 3,2 km/h (1 Bft) 93,75 %
28.12.2020 14:24 5,8 C 7,2 C 6,1 C 86 % 977,9 hPa 0,0 l/m 2 min 0 min 134 W/m 0,0 km/h (0 Bft) 95,65 %
28.12.2020 14:26 5,8 C 7,2 C 6,1 C 85 % 977,8 hPa 0,0 l/m 2 min 0 min 178 W/m 3,2 km/h (1 Bft) 97,14 %
28.12.2020 14:28 5,8 C 6,7 C 6,1 C 85 % 977,8 hPa 0,0 l/m 2 min 0 min 154 W/m 3,2 km/h (1 Bft) 97,87 %
28.12.2020 14:30 5,9 C 6,7 C 6,1 C 86 % 977,8 hPa 0,0 l/m 2 min 0 min 158 W/m 0,0 km/h (0 Bft) 100,00 %
28.12.2020 14:32 5,9 C 7,2 C 6,1 C 86 % 977,8 hPa 0,0 l/m 2 min 0 min 182 W/m 0,0 km/h (0 Bft) 98,18 %
28.12.2020 14:34 6,0 C 7,8 C 6,6 C 86 % 977,8 hPa 0,0 l/m 2 min 0 min 224 W/m 0,0 km/h (0 Bft) 95,74 %
28.12.2020 14:36 6,0 C 8,3 C 6,6 C 86 % 977,8 hPa 0,0 l/m 2 min 0 min 187 W/m 3,2 km/h (1 Bft) 95,83 %
28.12.2020 14:38 6,0 C 7,8 C 6,1 C 85 % 977,8 hPa 0,0 l/m 2 min 0 min 186 W/m 9,7 km/h (2 Bft) 97,92 %
28.12.2020 14:40 6,1 C 7,8 C 6,1 C 85 % 977,8 hPa 0,0 l/m 2 min 0 min 117 W/m 3,2 km/h (1 Bft) 97,22 %
28.12.2020 14:42 6,1 C 7,2 C 5,5 C 85 % 977,7 hPa 0,0 l/m 2 min 0 min 135 W/m 3,2 km/h (1 Bft) 98,15 %
28.12.2020 14:44 6,1 C 7,2 C 5,5 C 85 % 977,7 hPa 0,0 l/m 2 min 0 min 122 W/m 0,0 km/h (0 Bft) 97,50 %
28.12.2020 14:46 6,1 C 6,7 C 5,5 C 85 % 977,7 hPa 0,0 l/m 0 min 0 min 88 W/m 0,0 km/h (0 Bft) 97,87 %
28.12.2020 14:48 6,1 C 6,7 C 4,9 C 85 % 977,8 hPa 0,0 l/m 0 min 0 min 71 W/m 0,0 km/h (0 Bft) 96,23 %
28.12.2020 14:50 6,1 C 6,1 C 4,9 C 85 % 977,8 hPa 0,0 l/m 0 min 0 min 70 W/m 0,0 km/h (0 Bft) 95,74 %
28.12.2020 14:52 6,1 C 6,1 C 4,9 C 85 % 977,9 hPa 0,0 l/m 0 min 0 min 65 W/m 0,0 km/h (0 Bft) 97,96 %
28.12.2020 14:54 6,1 C 6,1 C 4,9 C 85 % 977,9 hPa 0,0 l/m 0 min 0 min 60 W/m 0,0 km/h (0 Bft) 95,92 %
28.12.2020 14:56 6,1 C 5,6 C 4,9 C 85 % 977,9 hPa 0,0 l/m 0 min 0 min 57 W/m 3,2 km/h (1 Bft) 94,44 %
28.12.2020 14:58 6,0 C 5,6 C 4,9 C 85 % 977,9 hPa 0,0 l/m 0 min 0 min 56 W/m 0,0 km/h (0 Bft) 98,18 %
28.12.2020 15:00 6,0 C 5,6 C 4,4 C 85 % 977,9 hPa 0,0 l/m 0 min 0 min 54 W/m 0,0 km/h (0 Bft) 97,92 %
28.12.2020 15:02 6,0 C 5,6 C 4,4 C 85 % 977,8 hPa 0,0 l/m 0 min 0 min 53 W/m 0,0 km/h (0 Bft) 97,50 %
28.12.2020 15:04 6,0 C 5,6 C 4,4 C 85 % 977,9 hPa 0,0 l/m 0 min 0 min 51 W/m 0,0 km/h (0 Bft) 98,21 %
28.12.2020 15:06 5,9 C 5,6 C 4,4 C 85 % 977,9 hPa 0,0 l/m 0 min 0 min 49 W/m 0,0 km/h (0 Bft) 93,88 %
28.12.2020 15:08 5,9 C 5,6 C 4,4 C 85 % 977,9 hPa 0,0 l/m 0 min 0 min 45 W/m 0,0 km/h (0 Bft) 97,22 %
28.12.2020 15:10 5,9 C 5,0 C 4,4 C 85 % 977,9 hPa 0,0 l/m 0 min 0 min 40 W/m 0,0 km/h (0 Bft) 97,87 %
28.12.2020 15:12 5,9 C 5,0 C 4,4 C 86 % 977,9 hPa 0,0 l/m 0 min 0 min 38 W/m 3,2 km/h (1 Bft) 97,83 %
28.12.2020 15:14 5,8 C 5,0 C 4,4 C 85 % 977,9 hPa 0,0 l/m 0 min 0 min 37 W/m 0,0 km/h (0 Bft) 97,87 %
28.12.2020 15:16 5,8 C 5,0 C 4,4 C 86 % 977,9 hPa 0,0 l/m 0 min 0 min 34 W/m 3,2 km/h (1 Bft) 96,23 %
28.12.2020 15:18 5,8 C 5,0 C 3,8 C 86 % 977,9 hPa 0,0 l/m 0 min 0 min 32 W/m 3,2 km/h (1 Bft) 95,74 %
28.12.2020 15:20 5,8 C 5,0 C 3,8 C 86 % 977,9 hPa 0,0 l/m 0 min 0 min 29 W/m 0,0 km/h (0 Bft) 98,00 %
28.12.2020 15:22 5,7 C 5,0 C 3,8 C 86 % 977,9 hPa 0,0 l/m 0 min 0 min 30 W/m 0,0 km/h (0 Bft) 97,83 %
28.12.2020 15:24 5,7 C 5,0 C 3,8 C 86 % 977,9 hPa 0,0 l/m 0 min 0 min 29 W/m 0,0 km/h (0 Bft) 97,92 %
28.12.2020 15:26 5,7 C 5,0 C 3,8 C 86 % 977,9 hPa 0,0 l/m 0 min 0 min 28 W/m 0,0 km/h (0 Bft) 97,87 %
28.12.2020 15:28 5,6 C 5,0 C 3,8 C 86 % 977,9 hPa 0,0 l/m 0 min 0 min 28 W/m 0,0 km/h (0 Bft) 95,83 %
28.12.2020 15:30 5,6 C 5,0 C 3,8 C 87 % 977,8 hPa 0,0 l/m 0 min 0 min 27 W/m 0,0 km/h (0 Bft) 100,00 %
28.12.2020 15:32 5,6 C 5,0 C 3,8 C 86 % 977,8 hPa 0,0 l/m 0 min 0 min 25 W/m 3,2 km/h (1 Bft) 97,92 %
28.12.2020 15:34 5,6 C 5,0 C 3,8 C 87 % 977,8 hPa 0,0 l/m 0 min 0 min 21 W/m 0,0 km/h (0 Bft) 100,00 %
28.12.2020 15:36 5,6 C 5,0 C 3,8 C 87 % 977,9 hPa 0,0 l/m 0 min 2 min 19 W/m 0,0 km/h (0 Bft) 100,00 %
28.12.2020 15:38 5,6 C 5,0 C 3,8 C 87 % 977,9 hPa 0,0 l/m 0 min 0 min 19 W/m 3,2 km/h (1 Bft) 95,83 %
28.12.2020 15:40 5,6 C 4,4 C 3,8 C 87 % 977,9 hPa 0,0 l/m 0 min 2 min 17 W/m 3,2 km/h (1 Bft) 100,00 %
28.12.2020 15:42 5,6 C 4,4 C 3,3 C 87 % 977,9 hPa 0,0 l/m 0 min 2 min 15 W/m 0,0 km/h (0 Bft) 100,00 %
28.12.2020 15:44 5,6 C 4,4 C 3,3 C 87 % 978,0 hPa 0,0 l/m 0 min 2 min 14 W/m 0,0 km/h (0 Bft) 100,00 %
28.12.2020 15:46 5,6 C 3,9 C 3,3 C 88 % 977,9 hPa 0,0 l/m 0 min 2 min 12 W/m 3,2 km/h (1 Bft) 97,87 %
28.12.2020 15:48 5,5 C 3,9 C 3,3 C 88 % 978,0 hPa 0,0 l/m 0 min 2 min 12 W/m 0,0 km/h (0 Bft) 100,00 %
28.12.2020 15:50 5,5 C 3,9 C 3,3 C 88 % 978,0 hPa 0,0 l/m 0 min 2 min 11 W/m 0,0 km/h (0 Bft) 100,00 %
28.12.2020 15:52 5,5 C 3,9 C 3,3 C 88 % 978,1 hPa 0,0 l/m 0 min 2 min 9 W/m 3,2 km/h (1 Bft) 100,00 %
28.12.2020 15:54 5,5 C 3,9 C 3,3 C 89 % 978,1 hPa 0,0 l/m 0 min 2 min 9 W/m 0,0 km/h (0 Bft) 100,00 %
28.12.2020 15:56 5,5 C 3,9 C 3,3 C 89 % 978,1 hPa 0,2 l/m 0 min 2 min 7 W/m 0,0 km/h (0 Bft) 100,00 %
28.12.2020 15:58 5,5 C 3,9 C 2,7 C 89 % 978,0 hPa 0,0 l/m 0 min 2 min 7 W/m 0,0 km/h (0 Bft) 100,00 %
28.12.2020 16:00 5,4 C 3,9 C 2,7 C 89 % 978,0 hPa 0,0 l/m 0 min 2 min 7 W/m 0,0 km/h (0 Bft) 100,00 %
28.12.2020 16:02 5,4 C 3,9 C 2,7 C 89 % 978,0 hPa 0,0 l/m 0 min 2 min 7 W/m 0,0 km/h (0 Bft) 100,00 %
28.12.2020 16:04 5,3 C 3,3 C 2,7 C 89 % 977,9 hPa 0,0 l/m 0 min 2 min 7 W/m 3,2 km/h (1 Bft) 100,00 %
28.12.2020 16:06 5,3 C 3,3 C 2,7 C 90 % 977,9 hPa 0,0 l/m 0 min 2 min 7 W/m 3,2 km/h (1 Bft) 100,00 %
28.12.2020 16:08 5,3 C 3,3 C 2,7 C 90 % 977,9 hPa 0,0 l/m 0 min 2 min 6 W/m 3,2 km/h (1 Bft) 100,00 %
28.12.2020 16:10 5,2 C 3,3 C 2,7 C 90 % 978,0 hPa 0,2 l/m 0 min 2 min 5 W/m 3,2 km/h (1 Bft) 100,00 %
28.12.2020 16:12 5,2 C 3,3 C 2,7 C 90 % 978,0 hPa 0,0 l/m 0 min 2 min 5 W/m 0,0 km/h (0 Bft) 100,00 %
28.12.2020 16:14 5,1 C 3,3 C 2,7 C 91 % 978,0 hPa 0,0 l/m 0 min 2 min 1 W/m 3,2 km/h (1 Bft) 100,00 %
28.12.2020 16:16 5,1 C 3,3 C 2,7 C 91 % 977,9 hPa 0,0 l/m 0 min 2 min 0 W/m 0,0 km/h (0 Bft) 97,87 %
28.12.2020 16:18 5,1 C 3,3 C 2,7 C 91 % 978,0 hPa 0,0 l/m 0 min 2 min 0 W/m 3,2 km/h (1 Bft) 97,87 %
28.12.2020 16:20 5,1 C 3,3 C 2,7 C 91 % 978,0 hPa 0,0 l/m 0 min 2 min 0 W/m 0,0 km/h (0 Bft) 52,27 %
28.12.2020 16:22 5,1 C 3,3 C 2,7 C 91 % 978,0 hPa 0,0 l/m 0 min 2 min 0 W/m 3,2 km/h (1 Bft) 95,56 %
28.12.2020 16:24 5,0 C 3,3 C 2,7 C 91 % 978,0 hPa 0,0 l/m 0 min 2 min 0 W/m 3,2 km/h (1 Bft) 97,87 %
28.12.2020 16:26 5,0 C 3,3 C 2,7 C 92 % 978,0 hPa 0,0 l/m 0 min 2 min 0 W/m 0,0 km/h (0 Bft) 97,87 %
28.12.2020 16:28 5,0 C 3,3 C 2,7 C 92 % 978,1 hPa 0,2 l/m 0 min 2 min 0 W/m 0,0 km/h (0 Bft) 96,30 %
28.12.2020 16:30 5,0 C 3,3 C 2,7 C 92 % 978,0 hPa 0,0 l/m 0 min 2 min 0 W/m 0,0 km/h (0 Bft) 97,96 %
28.12.2020 16:32 5,0 C 3,3 C 2,7 C 92 % 978,0 hPa 0,0 l/m 0 min 2 min 0 W/m 0,0 km/h (0 Bft) 97,37 %
28.12.2020 16:34 4,9 C 3,3 C 2,7 C 92 % 977,9 hPa 0,0 l/m 0 min 2 min 0 W/m 0,0 km/h (0 Bft) 97,83 %
28.12.2020 16:36 5,0 C 3,3 C 2,7 C 92 % 977,9 hPa 0,0 l/m 0 min 2 min 0 W/m 0,0 km/h (0 Bft) 97,87 %
28.12.2020 16:38 4,9 C 3,3 C 2,7 C 92 % 977,9 hPa 0,0 l/m 0 min 2 min 0 W/m 0,0 km/h (0 Bft) 97,87 %
28.12.2020 16:40 4,9 C 3,3 C 2,7 C 92 % 977,9 hPa 0,0 l/m 0 min 2 min 0 W/m 0,0 km/h (0 Bft) 97,87 %
28.12.2020 16:42 4,9 C 3,3 C 2,7 C 92 % 977,9 hPa 0,0 l/m 0 min 2 min 0 W/m 3,2 km/h (1 Bft) 97,87 %
28.12.2020 16:44 4,9 C 3,3 C 2,7 C 93 % 977,9 hPa 0,2 l/m 0 min 2 min 0 W/m 0,0 km/h (0 Bft) 97,87 %
28.12.2020 16:46 4,8 C 3,3 C 2,7 C 93 % 977,9 hPa 0,0 l/m 0 min 2 min 0 W/m 0,0 km/h (0 Bft) 95,65 %
28.12.2020 16:48 4,8 C 3,3 C 2,7 C 93 % 977,9 hPa 0,0 l/m 0 min 2 min 0 W/m 0,0 km/h (0 Bft) 95,74 %
28.12.2020 16:50 4,8 C 3,3 C 2,7 C 93 % 977,9 hPa 0,0 l/m 0 min 2 min 0 W/m 0,0 km/h (0 Bft) 98,11 %
28.12.2020 16:52 4,8 C 3,3 C 2,7 C 93 % 977,9 hPa 0,0 l/m 0 min 2 min 0 W/m 0,0 km/h (0 Bft) 98,00 %
28.12.2020 16:54 4,8 C 3,3 C 2,7 C 93 % 977,9 hPa 0,0 l/m 0 min 2 min 0 W/m 0,0 km/h (0 Bft) 95,74 %
28.12.2020 16:56 4,8 C 3,3 C 2,7 C 93 % 977,9 hPa 0,0 l/m 0 min 2 min 0 W/m 0,0 km/h (0 Bft) 97,83 %
28.12.2020 16:58 4,8 C 3,3 C 2,7 C 93 % 977,9 hPa 0,0 l/m 0 min 2 min 0 W/m 0,0 km/h (0 Bft) 97,56 %
28.12.2020 17:00 4,8 C 3,3 C 2,7 C 93 % 977,9 hPa 0,0 l/m 0 min 2 min 0 W/m 0,0 km/h (0 Bft) 95,74 %
28.12.2020 17:02 4,8 C 3,3 C 2,7 C 93 % 977,8 hPa 0,2 l/m 0 min 2 min 0 W/m 0,0 km/h (0 Bft) 96,00 %
28.12.2020 17:04 4,8 C 3,3 C 2,7 C 94 % 977,8 hPa 0,0 l/m 0 min 2 min 0 W/m 0,0 km/h (0 Bft) 97,37 %
28.12.2020 17:06 4,7 C 3,3 C 2,7 C 94 % 977,8 hPa 0,0 l/m 0 min 2 min 0 W/m 0,0 km/h (0 Bft) 98,21 %
28.12.2020 17:08 4,7 C 3,3 C 2,7 C 94 % 977,8 hPa 0,0 l/m 0 min 2 min 0 W/m 0,0 km/h (0 Bft) 95,92 %
28.12.2020 17:10 4,7 C 3,3 C 2,7 C 94 % 977,8 hPa 0,0 l/m 0 min 2 min 0 W/m 0,0 km/h (0 Bft) 100,00 %
28.12.2020 17:12 4,7 C 3,3 C 2,7 C 94 % 977,8 hPa 0,0 l/m 0 min 2 min 0 W/m 0,0 km/h (0 Bft) 100,00 %
28.12.2020 17:14 4,7 C 3,3 C 2,7 C 94 % 977,8 hPa 0,0 l/m 0 min 0 min 0 W/m 0,0 km/h (0 Bft) 98,04 %
28.12.2020 17:16 4,6 C 3,3 C 2,7 C 94 % 977,7 hPa 0,0 l/m 0 min 2 min 0 W/m 0,0 km/h (0 Bft) 97,22 %
28.12.2020 17:18 4,6 C 3,3 C 2,7 C 94 % 977,8 hPa 0,0 l/m 0 min 0 min 0 W/m 0,0 km/h (0 Bft) 95,74 %
28.12.2020 17:20 4,6 C 3,3 C 2,7 C 94 % 977,8 hPa 0,0 l/m 0 min 0 min 0 W/m 0,0 km/h (0 Bft) 98,21 %
28.12.2020 17:22 4,6 C 3,3 C 2,7 C 94 % 977,7 hPa 0,0 l/m 0 min 0 min 0 W/m 0,0 km/h (0 Bft) 97,30 %
28.12.2020 17:24 4,6 C 3,3 C 2,7 C 94 % 977,7 hPa 0,0 l/m 0 min 0 min 0 W/m 0,0 km/h (0 Bft) 95,74 %
28.12.2020 17:26 4,6 C 3,3 C 2,7 C 94 % 977,7 hPa 0,0 l/m 0 min 0 min 0 W/m 0,0 km/h (0 Bft) 97,87 %
28.12.2020 17:28 4,6 C 3,3 C 2,7 C 94 % 977,8 hPa 0,0 l/m 0 min 0 min 0 W/m 0,0 km/h (0 Bft) 98,11 %
28.12.2020 17:30 4,6 C 3,3 C 2,7 C 94 % 977,8 hPa 0,0 l/m 0 min 0 min 0 W/m 0,0 km/h (0 Bft) 97,92 %
28.12.2020 17:32 4,6 C 3,3 C 2,7 C 94 % 977,8 hPa 0,0 l/m 0 min 0 min 0 W/m 0,0 km/h (0 Bft) 94,00 %
28.12.2020 17:34 4,6 C 3,3 C 2,7 C 94 % 977,8 hPa 0,0 l/m 0 min 0 min 0 W/m 0,0 km/h (0 Bft) 100,00 %
28.12.2020 17:36 4,6 C 3,3 C 2,7 C 94 % 977,8 hPa 0,0 l/m 0 min 0 min 0 W/m 0,0 km/h (0 Bft) 97,87 %
28.12.2020 17:38 4,6 C 3,3 C 2,7 C 94 % 977,8 hPa 0,0 l/m 0 min 0 min 0 W/m 0,0 km/h (0 Bft) 93,62 %
28.12.2020 17:40 4,6 C 3,3 C 2,7 C 94 % 977,8 hPa 0,0 l/m 0 min 0 min 0 W/m 0,0 km/h (0 Bft) 98,11 %
28.12.2020 17:42 4,5 C 3,3 C 2,7 C 94 % 977,7 hPa 0,0 l/m 0 min 0 min 0 W/m 0,0 km/h (0 Bft) 97,92 %
28.12.2020 17:44 4,5 C 3,3 C 2,7 C 94 % 977,7 hPa 0,0 l/m 0 min 0 min 0 W/m 0,0 km/h (0 Bft) 97,92 %
28.12.2020 17:46 4,5 C 3,3 C 2,7 C 94 % 977,7 hPa 0,0 l/m 0 min 0 min 0 W/m 0,0 km/h (0 Bft) 97,87 %
28.12.2020 17:48 4,5 C 3,3 C 2,7 C 94 % 977,8 hPa 0,0 l/m 0 min 0 min 0 W/m 0,0 km/h (0 Bft) 97,87 %
28.12.2020 17:50 4,5 C 3,3 C 2,7 C 94 % 977,8 hPa 0,0 l/m 0 min 0 min 0 W/m 0,0 km/h (0 Bft) 97,87 %
28.12.2020 17:52 4,5 C 3,3 C 2,7 C 94 % 977,8 hPa 0,0 l/m 0 min 0 min 0 W/m 0,0 km/h (0 Bft) 97,92 %
28.12.2020 17:54 4,5 C 3,3 C 2,7 C 94 % 977,8 hPa 0,0 l/m 0 min 0 min 0 W/m 0,0 km/h (0 Bft) 97,83 %
28.12.2020 17:56 4,5 C 3,3 C 2,7 C 94 % 977,8 hPa 0,0 l/m 0 min 0 min 0 W/m 0,0 km/h (0 Bft) 100,00 %
28.12.2020 17:58 4,5 C 3,3 C 2,7 C 94 % 977,8 hPa 0,0 l/m 0 min 0 min 0 W/m 0,0 km/h (0 Bft) 100,00 %
28.12.2020 18:00 4,5 C 3,3 C 2,7 C 94 % 977,8 hPa 0,0 l/m 0 min 0 min 0 W/m 0,0 km/h (0 Bft) 100,00 %
28.12.2020 18:02 4,5 C 3,3 C 2,7 C 94 % 977,7 hPa 0,0 l/m 0 min 0 min 0 W/m 0,0 km/h (0 Bft) 98,25 %
28.12.2020 18:04 4,5 C 3,3 C 2,7 C 94 % 977,7 hPa 0,0 l/m 0 min 0 min 0 W/m 0,0 km/h (0 Bft) 100,00 %
28.12.2020 18:08 4,5 C 3,3 C 2,7 C 94 % 977,8 hPa 0,0 l/m 0 min 0 min 0 W/m 0,0 km/h (0 Bft) 100,00 %
28.12.2020 18:10 4,5 C 3,3 C 2,7 C 94 % 977,8 hPa 0,0 l/m 0 min 0 min 0 W/m 0,0 km/h (0 Bft) 100,00 %
28.12.2020 18:12 4,5 C 3,3 C 2,7 C 94 % 977,7 hPa 0,0 l/m 0 min 0 min 0 W/m 0,0 km/h (0 Bft) 100,00 %
28.12.2020 18:14 4,5 C 3,3 C 2,7 C 94 % 977,7 hPa 0,0 l/m 0 min 0 min 0 W/m 0,0 km/h (0 Bft) 100,00 %
28.12.2020 18:16 4,4 C 3,3 C 2,7 C 94 % 977,8 hPa 0,0 l/m 0 min 0 min 0 W/m 0,0 km/h (0 Bft) 100,00 %
28.12.2020 18:18 4,4 C 3,3 C 2,7 C 95 % 977,8 hPa 0,0 l/m 0 min 0 min 0 W/m 0,0 km/h (0 Bft) 100,00 %
28.12.2020 18:20 4,4 C 3,3 C 2,7 C 95 % 977,9 hPa 0,0 l/m 0 min 0 min 0 W/m 0,0 km/h (0 Bft) 100,00 %
28.12.2020 18:22 4,4 C 3,3 C 2,7 C 95 % 977,9 hPa 0,0 l/m 0 min 0 min 0 W/m 0,0 km/h (0 Bft) 100,00 %
28.12.2020 18:24 4,4 C 3,3 C 2,7 C 95 % 977,9 hPa 0,0 l/m 0 min 0 min 0 W/m 0,0 km/h (0 Bft) 98,15 %
28.12.2020 18:26 4,5 C 3,3 C 2,7 C 95 % 977,9 hPa 0,0 l/m 0 min 0 min 0 W/m 0,0 km/h (0 Bft) 54,55 %
28.12.2020 18:28 4,5 C 3,3 C 2,7 C 95 % 977,9 hPa 0,0 l/m 0 min 0 min 0 W/m 0,0 km/h (0 Bft) 100,00 %
28.12.2020 18:30 4,5 C 3,3 C 2,7 C 95 % 978,0 hPa 0,0 l/m 0 min 0 min 0 W/m 0,0 km/h (0 Bft) 100,00 %
28.12.2020 18:32 4,5 C 3,9 C 2,7 C 95 % 977,9 hPa 0,0 l/m 0 min 0 min 0 W/m 0,0 km/h (0 Bft) 100,00 %
28.12.2020 18:34 4,5 C 3,9 C 2,7 C 95 % 977,9 hPa 0,0 l/m 0 min 0 min 0 W/m 0,0 km/h (0 Bft) 100,00 %
28.12.2020 18:36 4,5 C 3,9 C 2,7 C 95 % 977,9 hPa 0,0 l/m 0 min 0 min 0 W/m 0,0 km/h (0 Bft) 100,00 %
28.12.2020 18:38 4,5 C 3,9 C 2,7 C 95 % 978,0 hPa 0,0 l/m 0 min 0 min 0 W/m 3,2 km/h (1 Bft) 97,87 %
28.12.2020 18:40 4,5 C 3,3 C 2,7 C 95 % 977,9 hPa 0,0 l/m 0 min 0 min 0 W/m 3,2 km/h (1 Bft) 100,00 %
28.12.2020 18:42 4,5 C 3,3 C 2,7 C 95 % 978,1 hPa 0,0 l/m 0 min 0 min 0 W/m 0,0 km/h (0 Bft) 100,00 %
28.12.2020 18:44 4,5 C 3,3 C 2,7 C 95 % 978,1 hPa 0,0 l/m 0 min 0 min 0 W/m 0,0 km/h (0 Bft) 100,00 %
28.12.2020 18:46 4,5 C 3,3 C 2,7 C 95 % 978,2 hPa 0,0 l/m 0 min 0 min 0 W/m 0,0 km/h (0 Bft) 97,92 %
28.12.2020 18:48 4,5 C 3,3 C 2,7 C 95 % 978,2 hPa 0,0 l/m 0 min 0 min 0 W/m 0,0 km/h (0 Bft) 100,00 %
28.12.2020 18:50 4,4 C 3,3 C 2,7 C 95 % 978,2 hPa 0,0 l/m 0 min 0 min 0 W/m 0,0 km/h (0 Bft) 97,96 %
28.12.2020 18:52 4,4 C 3,3 C 2,7 C 95 % 978,2 hPa 0,0 l/m 0 min 0 min 0 W/m 0,0 km/h (0 Bft) 100,00 %
28.12.2020 18:54 4,4 C 3,3 C 2,7 C 95 % 978,2 hPa 0,0 l/m 0 min 0 min 0 W/m 0,0 km/h (0 Bft) 100,00 %
28.12.2020 18:56 4,4 C 3,3 C 2,7 C 95 % 978,3 hPa 0,0 l/m 0 min 0 min 0 W/m 12,9 km/h (3 Bft) 100,00 %
28.12.2020 18:58 4,4 C 3,3 C 2,7 C 95 % 978,3 hPa 0,0 l/m 0 min 0 min 0 W/m 0,0 km/h (0 Bft) 100,00 %
28.12.2020 19:00 4,4 C 3,3 C 2,7 C 96 % 978,3 hPa 0,0 l/m 0 min 0 min 0 W/m 3,2 km/h (1 Bft) 100,00 %
28.12.2020 19:02 4,4 C 3,3 C 2,2 C 96 % 978,3 hPa 0,0 l/m 0 min 0 min 0 W/m 3,2 km/h (1 Bft) 100,00 %
28.12.2020 19:04 4,3 C 3,3 C 2,2 C 95 % 978,4 hPa 0,0 l/m 0 min 0 min 0 W/m 0,0 km/h (0 Bft) 100,00 %
28.12.2020 19:06 4,3 C 3,3 C 2,2 C 95 % 978,5 hPa 0,0 l/m 0 min 0 min 0 W/m 0,0 km/h (0 Bft) 97,83 %
28.12.2020 19:08 4,3 C 3,3 C 2,2 C 95 % 978,5 hPa 0,0 l/m 0 min 0 min 0 W/m 0,0 km/h (0 Bft) 100,00 %
28.12.2020 19:10 4,3 C 3,3 C 2,2 C 95 % 978,6 hPa 0,0 l/m 0 min 0 min 0 W/m 12,9 km/h (3 Bft) 97,92 %
28.12.2020 19:12 4,2 C 3,3 C 2,2 C 95 % 978,6 hPa 0,0 l/m 0 min 0 min 0 W/m 0,0 km/h (0 Bft) 100,00 %
28.12.2020 19:14 4,2 C 3,3 C 2,2 C 95 % 978,7 hPa 0,0 l/m 0 min 0 min 0 W/m 0,0 km/h (0 Bft) 100,00 %
28.12.2020 19:16 4,1 C 3,3 C 2,2 C 95 % 978,7 hPa 0,0 l/m 0 min 0 min 0 W/m 22,5 km/h (4 Bft) 97,22 %
28.12.2020 19:18 4,1 C 3,3 C 2,2 C 95 % 978,7 hPa 0,0 l/m 0 min 0 min 0 W/m 0,0 km/h (0 Bft) 97,83 %
28.12.2020 19:20 4,1 C 3,3 C 2,2 C 95 % 978,7 hPa 0,0 l/m 0 min 2 min 0 W/m 0,0 km/h (0 Bft) 97,87 %
28.12.2020 19:22 4,1 C 2,8 C 2,2 C 95 % 978,7 hPa 0,0 l/m 0 min 2 min 0 W/m 0,0 km/h (0 Bft) 96,23 %
28.12.2020 19:24 4,1 C 2,8 C 2,2 C 95 % 978,7 hPa 0,0 l/m 0 min 0 min 0 W/m 0,0 km/h (0 Bft) 97,87 %
28.12.2020 19:26 4,0 C 2,8 C 2,2 C 95 % 978,7 hPa 0,0 l/m 0 min 2 min 0 W/m 3,2 km/h (1 Bft) 95,74 %
28.12.2020 19:28 4,0 C 2,8 C 2,2 C 95 % 978,8 hPa 0,0 l/m 0 min 2 min 0 W/m 12,9 km/h (3 Bft) 95,74 %
28.12.2020 19:30 4,0 C 2,8 C 2,2 C 95 % 978,8 hPa 0,0 l/m 0 min 2 min 0 W/m 0,0 km/h (0 Bft) 97,96 %
28.12.2020 19:32 4,0 C 2,8 C 2,2 C 95 % 978,8 hPa 0,0 l/m 0 min 0 min 0 W/m 12,9 km/h (3 Bft) 98,00 %
28.12.2020 19:34 4,0 C 2,8 C 2,2 C 94 % 978,9 hPa 0,0 l/m 0 min 0 min 0 W/m 0,0 km/h (0 Bft) 97,87 %
28.12.2020 19:36 3,9 C 2,8 C 2,2 C 95 % 978,9 hPa 0,2 l/m 0 min 2 min 0 W/m 3,2 km/h (1 Bft) 94,29 %
28.12.2020 19:38 3,9 C 2,8 C 2,2 C 95 % 978,9 hPa 0,0 l/m 0 min 2 min 0 W/m 0,0 km/h (0 Bft) 95,74 %
28.12.2020 19:40 3,9 C 2,8 C 2,2 C 94 % 979,0 hPa 0,0 l/m 0 min 0 min 0 W/m 0,0 km/h (0 Bft) 93,62 %
28.12.2020 19:42 3,9 C 2,8 C 2,2 C 94 % 978,9 hPa 0,0 l/m 0 min 0 min 0 W/m 0,0 km/h (0 Bft) 96,15 %
28.12.2020 19:44 3,9 C 2,8 C 2,2 C 94 % 978,9 hPa 0,0 l/m 0 min 0 min 0 W/m 0,0 km/h (0 Bft) 93,75 %
28.12.2020 19:46 3,9 C 2,8 C 2,2 C 94 % 978,9 hPa 0,0 l/m 0 min 0 min 0 W/m 0,0 km/h (0 Bft) 95,83 %
28.12.2020 19:48 3,9 C 2,8 C 2,2 C 94 % 978,9 hPa 0,0 l/m 0 min 0 min 0 W/m 0,0 km/h (0 Bft) 89,80 %
28.12.2020 19:50 3,9 C 2,8 C 2,2 C 94 % 978,9 hPa 0,0 l/m 0 min 0 min 0 W/m 0,0 km/h (0 Bft) 95,74 %
28.12.2020 19:52 3,9 C 2,8 C 2,2 C 94 % 978,9 hPa 0,0 l/m 0 min 0 min 0 W/m 0,0 km/h (0 Bft) 93,75 %
28.12.2020 19:54 3,9 C 2,8 C 2,2 C 94 % 978,9 hPa 0,0 l/m 0 min 0 min 0 W/m 0,0 km/h (0 Bft) 94,29 %
28.12.2020 19:56 3,9 C 2,8 C 2,2 C 94 % 978,9 hPa 0,0 l/m 0 min 0 min 0 W/m 0,0 km/h (0 Bft) 95,74 %
28.12.2020 19:58 3,9 C 2,8 C 2,2 C 94 % 978,9 hPa 0,0 l/m 0 min 0 min 0 W/m 0,0 km/h (0 Bft) 94,55 %
28.12.2020 20:00 3,9 C 2,8 C 2,2 C 94 % 978,9 hPa 0,0 l/m 0 min 0 min 0 W/m 0,0 km/h (0 Bft) 95,74 %
28.12.2020 20:02 3,9 C 2,8 C 2,2 C 94 % 978,9 hPa 0,0 l/m 0 min 0 min 0 W/m 0,0 km/h (0 Bft) 95,56 %
28.12.2020 20:04 3,9 C 2,8 C 2,2 C 94 % 978,9 hPa 0,0 l/m 0 min 0 min 0 W/m 0,0 km/h (0 Bft) 96,00 %
28.12.2020 20:06 3,9 C 2,8 C 2,2 C 94 % 978,9 hPa 0,0 l/m 0 min 0 min 0 W/m 0,0 km/h (0 Bft) 95,92 %
28.12.2020 20:08 3,9 C 2,8 C 2,2 C 94 % 979,0 hPa 0,0 l/m 0 min 0 min 0 W/m 0,0 km/h (0 Bft) 95,74 %
28.12.2020 20:10 3,9 C 2,8 C 2,2 C 94 % 979,0 hPa 0,0 l/m 0 min 0 min 0 W/m 0,0 km/h (0 Bft) 95,74 %
28.12.2020 20:12 3,9 C 2,8 C 2,2 C 94 % 979,0 hPa 0,0 l/m 0 min 0 min 0 W/m 0,0 km/h (0 Bft) 97,14 %
28.12.2020 20:14 3,9 C 2,8 C 2,2 C 94 % 979,0 hPa 0,0 l/m 0 min 0 min 0 W/m 0,0 km/h (0 Bft) 97,87 %
28.12.2020 20:16 3,9 C 2,8 C 2,2 C 94 % 979,0 hPa 0,0 l/m 0 min 0 min 0 W/m 0,0 km/h (0 Bft) 97,83 %
28.12.2020 20:18 3,9 C 2,8 C 2,2 C 94 % 979,1 hPa 0,0 l/m 0 min 0 min 0 W/m 0,0 km/h (0 Bft) 97,87 %
28.12.2020 20:20 3,9 C 2,8 C 2,2 C 94 % 979,2 hPa 0,0 l/m 0 min 0 min 0 W/m 0,0 km/h (0 Bft) 100,00 %
28.12.2020 20:22 3,9 C 2,8 C 2,2 C 94 % 979,2 hPa 0,0 l/m 0 min 0 min 0 W/m 0,0 km/h (0 Bft) 98,11 %
28.12.2020 20:24 3,9 C 2,8 C 2,2 C 94 % 979,2 hPa 0,0 l/m 0 min 0 min 0 W/m 0,0 km/h (0 Bft) 97,87 %
28.12.2020 20:26 3,9 C 2,8 C 2,2 C 94 % 979,2 hPa 0,0 l/m 0 min 0 min 0 W/m 0,0 km/h (0 Bft) 97,87 %
28.12.2020 20:28 3,9 C 2,8 C 2,2 C 95 % 979,2 hPa 0,0 l/m 0 min 0 min 0 W/m 0,0 km/h (0 Bft) 57,45 %
28.12.2020 20:30 3,9 C 2,8 C 2,2 C 95 % 979,2 hPa 0,0 l/m 0 min 0 min 0 W/m 0,0 km/h (0 Bft) 97,92 %
28.12.2020 20:32 3,9 C 2,8 C 2,2 C 95 % 979,2 hPa 0,0 l/m 0 min 0 min 0 W/m 0,0 km/h (0 Bft) 100,00 %
28.12.2020 20:34 3,9 C 2,8 C 2,2 C 95 % 979,2 hPa 0,0 l/m 0 min 0 min 0 W/m 0,0 km/h (0 Bft) 100,00 %
28.12.2020 20:36 3,8 C 2,8 C 2,2 C 95 % 979,2 hPa 0,0 l/m 0 min 0 min 0 W/m 0,0 km/h (0 Bft) 100,00 %
28.12.2020 20:38 3,8 C 2,8 C 2,2 C 95 % 979,2 hPa 0,0 l/m 0 min 0 min 0 W/m 0,0 km/h (0 Bft) 100,00 %
28.12.2020 20:40 3,8 C 2,8 C 2,2 C 95 % 979,2 hPa 0,0 l/m 0 min 0 min 0 W/m 0,0 km/h (0 Bft) 100,00 %
28.12.2020 20:42 3,8 C 2,8 C 2,2 C 95 % 979,2 hPa 0,0 l/m 0 min 0 min 0 W/m 0,0 km/h (0 Bft) 100,00 %
28.12.2020 20:44 3,8 C 2,8 C 2,2 C 95 % 979,2 hPa 0,0 l/m 0 min 0 min 0 W/m 0,0 km/h (0 Bft) 100,00 %
28.12.2020 20:46 3,8 C 2,8 C 2,2 C 95 % 979,2 hPa 0,0 l/m 0 min 0 min 0 W/m 0,0 km/h (0 Bft) 100,00 %
28.12.2020 20:48 3,8 C 2,8 C 2,2 C 95 % 979,1 hPa 0,0 l/m 0 min 0 min 0 W/m 0,0 km/h (0 Bft) 100,00 %
28.12.2020 20:50 3,8 C 2,8 C 2,2 C 95 % 979,1 hPa 0,0 l/m 0 min 0 min 0 W/m 0,0 km/h (0 Bft) 100,00 %
28.12.2020 20:52 3,8 C 2,8 C 1,6 C 95 % 979,1 hPa 0,0 l/m 0 min 0 min 0 W/m 0,0 km/h (0 Bft) 100,00 %
28.12.2020 20:54 3,8 C 2,8 C 1,6 C 95 % 979,1 hPa 0,0 l/m 0 min 0 min 0 W/m 0,0 km/h (0 Bft) 100,00 %
28.12.2020 20:56 3,8 C 2,8 C 1,6 C 95 % 979,1 hPa 0,0 l/m 0 min 0 min 0 W/m 0,0 km/h (0 Bft) 98,11 %
28.12.2020 20:58 3,7 C 2,8 C 1,6 C 95 % 979,2 hPa 0,0 l/m 0 min 0 min 0 W/m 0,0 km/h (0 Bft) 100,00 %
28.12.2020 21:00 3,7 C 2,8 C 2,2 C 95 % 979,1 hPa 0,0 l/m 0 min 0 min 0 W/m 0,0 km/h (0 Bft) 100,00 %
28.12.2020 21:02 3,7 C 2,8 C 1,6 C 95 % 979,1 hPa 0,0 l/m 0 min 0 min 0 W/m 0,0 km/h (0 Bft) 100,00 %
28.12.2020 21:04 3,7 C 2,8 C 1,6 C 95 % 979,1 hPa 0,0 l/m 0 min 0 min 0 W/m 0,0 km/h (0 Bft) 97,56 %
28.12.2020 21:06 3,7 C 2,8 C 1,6 C 95 % 979,1 hPa 0,0 l/m 0 min 0 min 0 W/m 0,0 km/h (0 Bft) 97,87 %
28.12.2020 21:08 3,6 C 2,8 C 1,6 C 95 % 979,1 hPa 0,0 l/m 0 min 0 min 0 W/m 0,0 km/h (0 Bft) 100,00 %
28.12.2020 21:10 3,6 C 2,8 C 1,6 C 95 % 979,1 hPa 0,0 l/m 0 min 0 min 0 W/m 0,0 km/h (0 Bft) 100,00 %
28.12.2020 21:12 3,6 C 2,8 C 1,6 C 95 % 979,1 hPa 0,0 l/m 0 min 0 min 0 W/m 0,0 km/h (0 Bft) 100,00 %
28.12.2020 21:14 3,6 C 2,8 C 1,6 C 94 % 979,1 hPa 0,0 l/m 0 min 0 min 0 W/m 0,0 km/h (0 Bft) 97,92 %
28.12.2020 21:16 3,6 C 2,8 C 1,6 C 94 % 979,1 hPa 0,0 l/m 0 min 0 min 0 W/m 0,0 km/h (0 Bft) 97,83 %
28.12.2020 21:18 3,6 C 2,8 C 1,6 C 94 % 979,1 hPa 0,0 l/m 0 min 0 min 0 W/m 0,0 km/h (0 Bft) 97,92 %
28.12.2020 21:20 3,6 C 2,8 C 1,6 C 94 % 979,1 hPa 0,0 l/m 0 min 0 min 0 W/m 0,0 km/h (0 Bft) 97,92 %
28.12.2020 21:22 3,6 C 2,8 C 1,6 C 94 % 979,1 hPa 0,0 l/m 0 min 0 min 0 W/m 0,0 km/h (0 Bft) 97,96 %
28.12.2020 21:24 3,6 C 2,8 C 1,6 C 94 % 979,2 hPa 0,0 l/m 0 min 0 min 0 W/m 0,0 km/h (0 Bft) 89,58 %
28.12.2020 21:26 3,5 C 2,2 C 1,6 C 94 % 979,1 hPa 0,0 l/m 0 min 0 min 0 W/m 0,0 km/h (0 Bft) 63,64 %
28.12.2020 21:28 3,5 C 2,2 C 1,6 C 94 % 979,1 hPa 0,0 l/m 0 min 0 min 0 W/m 0,0 km/h (0 Bft) 97,87 %
28.12.2020 21:30 3,5 C 2,2 C 1,6 C 94 % 979,2 hPa 0,0 l/m 0 min 0 min 0 W/m 0,0 km/h (0 Bft) 97,14 %
28.12.2020 21:32 3,5 C 2,2 C 1,6 C 94 % 979,2 hPa 0,0 l/m 0 min 0 min 0 W/m 0,0 km/h (0 Bft) 98,15 %
28.12.2020 21:34 3,5 C 2,2 C 1,6 C 94 % 979,2 hPa 0,0 l/m 0 min 0 min 0 W/m 0,0 km/h (0 Bft) 97,92 %
28.12.2020 21:36 3,5 C 2,2 C 1,6 C 94 % 979,2 hPa 0,0 l/m 0 min 0 min 0 W/m 0,0 km/h (0 Bft) 95,74 %
28.12.2020 21:38 3,4 C 2,2 C 1,6 C 94 % 979,2 hPa 0,0 l/m 0 min 0 min 0 W/m 0,0 km/h (0 Bft) 97,87 %
28.12.2020 21:40 3,4 C 2,2 C 1,6 C 94 % 979,3 hPa 0,0 l/m 0 min 0 min 0 W/m 0,0 km/h (0 Bft) 95,83 %
28.12.2020 21:42 3,4 C 2,2 C 1,1 C 94 % 979,3 hPa 0,0 l/m 0 min 0 min 0 W/m 0,0 km/h (0 Bft) 97,96 %
28.12.2020 21:44 3,4 C 2,2 C 1,1 C 94 % 979,2 hPa 0,0 l/m 0 min 0 min 0 W/m 0,0 km/h (0 Bft) 95,74 %
28.12.2020 21:46 3,3 C 2,2 C 1,1 C 94 % 979,3 hPa 0,0 l/m 0 min 0 min 0 W/m 0,0 km/h (0 Bft) 97,87 %
28.12.2020 21:48 3,3 C 2,2 C 1,1 C 94 % 979,3 hPa 0,0 l/m 0 min 0 min 0 W/m 0,0 km/h (0 Bft) 94,29 %
28.12.2020 21:50 3,3 C 2,2 C 1,1 C 94 % 979,2 hPa 0,0 l/m 0 min 0 min 0 W/m 0,0 km/h (0 Bft) 96,30 %
28.12.2020 21:52 3,3 C 2,2 C 1,1 C 94 % 979,2 hPa 0,0 l/m 0 min 0 min 0 W/m 0,0 km/h (0 Bft) 97,92 %
28.12.2020 21:54 3,3 C 2,2 C 1,1 C 94 % 979,2 hPa 0,0 l/m 0 min 0 min 0 W/m 0,0 km/h (0 Bft) 95,83 %
28.12.2020 21:56 3,2 C 2,2 C 1,1 C 94 % 979,2 hPa 0,0 l/m 0 min 0 min 0 W/m 0,0 km/h (0 Bft) 97,92 %
28.12.2020 21:58 3,2 C 2,2 C 1,1 C 94 % 979,2 hPa 0,0 l/m 0 min 0 min 0 W/m 0,0 km/h (0 Bft) 97,92 %
28.12.2020 22:00 3,2 C 2,2 C 1,1 C 94 % 979,2 hPa 0,0 l/m 0 min 0 min 0 W/m 0,0 km/h (0 Bft) 95,65 %
28.12.2020 22:02 3,1 C 2,2 C 1,1 C 94 % 979,3 hPa 0,0 l/m 0 min 0 min 0 W/m 0,0 km/h (0 Bft) 93,48 %
28.12.2020 22:04 3,1 C 2,2 C 1,1 C 94 % 979,2 hPa 0,0 l/m 0 min 0 min 0 W/m 0,0 km/h (0 Bft) 95,83 %
28.12.2020 22:08 3,1 C 2,2 C 1,1 C 94 % 979,3 hPa 0,0 l/m 0 min 0 min 0 W/m 0,0 km/h (0 Bft) 94,38 %
28.12.2020 22:10 3,0 C 2,2 C 1,1 C 94 % 979,2 hPa 0,0 l/m 0 min 0 min 0 W/m 0,0 km/h (0 Bft) 95,83 %
28.12.2020 22:12 3,0 C 1,7 C 1,1 C 94 % 979,2 hPa 0,0 l/m 0 min 0 min 0 W/m 0,0 km/h (0 Bft) 95,83 %
28.12.2020 22:14 3,0 C 1,7 C 1,1 C 94 % 979,2 hPa 0,0 l/m 0 min 0 min 0 W/m 0,0 km/h (0 Bft) 93,62 %
28.12.2020 22:16 3,0 C 1,7 C 1,1 C 94 % 979,2 hPa 0,0 l/m 0 min 0 min 0 W/m 0,0 km/h (0 Bft) 93,75 %
28.12.2020 22:18 3,0 C 1,7 C 1,1 C 94 % 979,2 hPa 0,0 l/m 0 min 0 min 0 W/m 0,0 km/h (0 Bft) 95,83 %
28.12.2020 22:20 2,9 C 1,7 C 1,1 C 94 % 979,2 hPa 0,0 l/m 0 min 0 min 0 W/m 0,0 km/h (0 Bft) 93,62 %
28.12.2020 22:22 2,9 C 1,7 C 1,1 C 94 % 979,2 hPa 0,0 l/m 0 min 0 min 0 W/m 0,0 km/h (0 Bft) 95,74 %
28.12.2020 22:24 2,9 C 1,7 C 1,1 C 94 % 979,3 hPa 0,0 l/m 0 min 0 min 0 W/m 0,0 km/h (0 Bft) 94,29 %
28.12.2020 22:26 2,9 C 1,7 C 0,5 C 94 % 979,3 hPa 0,0 l/m 0 min 0 min 0 W/m 0,0 km/h (0 Bft) 92,45 %
28.12.2020 22:28 2,9 C 1,1 C 0,5 C 94 % 979,3 hPa 0,0 l/m 0 min 0 min 0 W/m 0,0 km/h (0 Bft) 91,49 %
28.12.2020 22:30 2,9 C 1,1 C 0,5 C 94 % 979,3 hPa 0,0 l/m 0 min 0 min 0 W/m 0,0 km/h (0 Bft) 93,88 %
28.12.2020 22:32 2,8 C 1,1 C 0,5 C 94 % 979,3 hPa 0,0 l/m 0 min 0 min 0 W/m 0,0 km/h (0 Bft) 91,84 %
28.12.2020 22:34 2,8 C 1,1 C 0,5 C 94 % 979,3 hPa 0,0 l/m 0 min 0 min 0 W/m 0,0 km/h (0 Bft) 89,36 %
28.12.2020 22:36 2,8 C 1,1 C 0,5 C 94 % 979,3 hPa 0,0 l/m 0 min 0 min 0 W/m 0,0 km/h (0 Bft) 93,62 %
28.12.2020 22:38 2,7 C 1,1 C 0,5 C 94 % 979,3 hPa 0,0 l/m 0 min 0 min 0 W/m 0,0 km/h (0 Bft) 95,74 %
28.12.2020 22:40 2,7 C 1,1 C 0,5 C 94 % 979,3 hPa 0,0 l/m 0 min 0 min 0 W/m 0,0 km/h (0 Bft) 93,62 %
28.12.2020 22:42 2,6 C 1,1 C 0,5 C 94 % 979,4 hPa 0,0 l/m 0 min 0 min 0 W/m 0,0 km/h (0 Bft) 94,29 %
28.12.2020 22:44 2,6 C 1,1 C 0,5 C 94 % 979,4 hPa 0,0 l/m 0 min 0 min 0 W/m 0,0 km/h (0 Bft) 96,30 %
28.12.2020 22:46 2,6 C 1,1 C 0,5 C 94 % 979,4 hPa 0,0 l/m 0 min 0 min 0 W/m 0,0 km/h (0 Bft) 95,92 %
28.12.2020 22:48 2,5 C 0,6 C -0,1 C 94 % 979,5 hPa 0,0 l/m 0 min 0 min 0 W/m 0,0 km/h (0 Bft) 93,62 %
28.12.2020 22:50 2,5 C 0,6 C -0,1 C 94 % 979,5 hPa 0,0 l/m 0 min 0 min 0 W/m 0,0 km/h (0 Bft) 95,83 %
28.12.2020 22:52 2,5 C 0,6 C -0,1 C 94 % 979,4 hPa 0,0 l/m 0 min 0 min 0 W/m 0,0 km/h (0 Bft) 95,83 %
28.12.2020 22:54 2,5 C 0,6 C -0,1 C 94 % 979,4 hPa 0,0 l/m 0 min 0 min 0 W/m 0,0 km/h (0 Bft) 97,87 %
28.12.2020 22:56 2,4 C 1,1 C 0,5 C 94 % 979,4 hPa 0,0 l/m 0 min 0 min 0 W/m 0,0 km/h (0 Bft) 95,74 %
28.12.2020 22:58 2,4 C 1,1 C 0,5 C 94 % 979,4 hPa 0,0 l/m 0 min 0 min 0 W/m 0,0 km/h (0 Bft) 95,24 %
28.12.2020 23:00 2,3 C 1,1 C 0,5 C 94 % 979,4 hPa 0,0 l/m 0 min 0 min 0 W/m 0,0 km/h (0 Bft) 95,92 %
28.12.2020 23:02 2,3 C 1,1 C 0,5 C 94 % 979,4 hPa 0,0 l/m 0 min 0 min 0 W/m 0,0 km/h (0 Bft) 95,92 %
28.12.2020 23:04 2,3 C 1,1 C 0,5 C 94 % 979,4 hPa 0,0 l/m 0 min 0 min 0 W/m 0,0 km/h (0 Bft) 95,35 %
28.12.2020 23:06 2,3 C 1,1 C 0,5 C 94 % 979,4 hPa 0,0 l/m 0 min 0 min 0 W/m 0,0 km/h (0 Bft) 93,88 %
28.12.2020 23:08 2,3 C 1,1 C 0,5 C 94 % 979,4 hPa 0,0 l/m 0 min 0 min 0 W/m 0,0 km/h (0 Bft) 93,88 %
28.12.2020 23:10 2,3 C 1,7 C 0,5 C 94 % 979,4 hPa 0,0 l/m 0 min 0 min 0 W/m 0,0 km/h (0 Bft) 93,48 %
28.12.2020 23:12 2,3 C 1,7 C 0,5 C 94 % 979,4 hPa 0,0 l/m 0 min 0 min 0 W/m 0,0 km/h (0 Bft) 95,74 %
28.12.2020 23:14 2,3 C 1,7 C 0,5 C 94 % 979,4 hPa 0,0 l/m 0 min 0 min 0 W/m 0,0 km/h (0 Bft) 95,74 %
28.12.2020 23:16 2,3 C 1,7 C 0,5 C 95 % 979,4 hPa 0,0 l/m 0 min 0 min 0 W/m 0,0 km/h (0 Bft) 93,62 %
28.12.2020 23:18 2,3 C 1,7 C 0,5 C 95 % 979,5 hPa 0,0 l/m 0 min 0 min 0 W/m 3,2 km/h (1 Bft) 97,14 %
28.12.2020 23:20 2,3 C 1,7 C 0,5 C 95 % 979,4 hPa 0,0 l/m 0 min 0 min 0 W/m 0,0 km/h (0 Bft) 96,36 %
28.12.2020 23:22 2,3 C 1,7 C 0,5 C 95 % 979,4 hPa 0,0 l/m 0 min 0 min 0 W/m 0,0 km/h (0 Bft) 97,92 %
28.12.2020 23:24 2,3 C 1,7 C 0,5 C 95 % 979,4 hPa 0,0 l/m 0 min 0 min 0 W/m 0,0 km/h (0 Bft) 95,83 %
28.12.2020 23:26 2,3 C 1,1 C 0,5 C 95 % 979,4 hPa 0,0 l/m 0 min 0 min 0 W/m 0,0 km/h (0 Bft) 97,92 %
28.12.2020 23:28 2,3 C 1,1 C 0,5 C 95 % 979,4 hPa 0,0 l/m 0 min 0 min 0 W/m 0,0 km/h (0 Bft) 97,87 %
28.12.2020 23:30 2,3 C 1,1 C 0,5 C 95 % 979,4 hPa 0,0 l/m 0 min 0 min 0 W/m 0,0 km/h (0 Bft) 97,87 %
28.12.2020 23:32 2,3 C 1,1 C -0,1 C 95 % 979,4 hPa 0,0 l/m 0 min 0 min 0 W/m 0,0 km/h (0 Bft) 97,14 %
28.12.2020 23:34 2,2 C 1,1 C -0,1 C 95 % 979,5 hPa 0,0 l/m 0 min 0 min 0 W/m 0,0 km/h (0 Bft) 98,08 %
28.12.2020 23:36 2,2 C 0,6 C -0,1 C 95 % 979,5 hPa 0,0 l/m 0 min 0 min 0 W/m 0,0 km/h (0 Bft) 97,92 %
28.12.2020 23:38 2,2 C 0,6 C -0,1 C 95 % 979,5 hPa 0,0 l/m 0 min 0 min 0 W/m 0,0 km/h (0 Bft) 97,87 %
28.12.2020 23:40 2,1 C 1,1 C -0,1 C 95 % 979,6 hPa 0,0 l/m 0 min 0 min 0 W/m 0,0 km/h (0 Bft) 97,92 %
28.12.2020 23:42 2,1 C 1,1 C -0,1 C 95 % 979,6 hPa 0,0 l/m 0 min 0 min 0 W/m 0,0 km/h (0 Bft) 97,96 %
28.12.2020 23:44 2,1 C 1,1 C 0,5 C 95 % 979,5 hPa 0,0 l/m 0 min 0 min 0 W/m 0,0 km/h (0 Bft) 97,87 %
28.12.2020 23:46 2,1 C 1,1 C 0,5 C 95 % 979,5 hPa 0,0 l/m 0 min 0 min 0 W/m 0,0 km/h (0 Bft) 97,87 %
28.12.2020 23:48 2,1 C 1,1 C 0,5 C 95 % 979,6 hPa 0,0 l/m 0 min 0 min 0 W/m 0,0 km/h (0 Bft) 97,92 %
28.12.2020 23:50 2,0 C 1,1 C 0,5 C 95 % 979,6 hPa 0,0 l/m 0 min 0 min 0 W/m 0,0 km/h (0 Bft) 95,74 %
28.12.2020 23:52 2,0 C 1,1 C 0,5 C 95 % 979,6 hPa 0,0 l/m 0 min 0 min 0 W/m 0,0 km/h (0 Bft) 95,74 %
28.12.2020 23:54 2,0 C 1,1 C 0,5 C 95 % 979,6 hPa 0,0 l/m 0 min 0 min 0 W/m 0,0 km/h (0 Bft) 97,87 %
28.12.2020 23:56 2,0 C 1,1 C -0,1 C 95 % 979,6 hPa 0,0 l/m 0 min 0 min 0 W/m 0,0 km/h (0 Bft) 97,14 %
28.12.2020 23:58 2,0 C 1,1 C -0,1 C 95 % 979,6 hPa 0,0 l/m 0 min 0 min 0 W/m 0,0 km/h (0 Bft) 98,25 %
_ Min-Zeit 08:34 08:24 06:46 14:26 00:00 - - - - 00:00 02:16
Minimum _ 1,9 C 0,6 C -0,1 C 85 % 977,1 hPa - - - - 0,0 km/h (0 Bft) 47,37 %
_ Max-Zeit 14:40 13:10 14:20 04:26 23:40 00:58 12:58 00:50 13:08 01:54 00:38
Maximum _ 6,1 C 9,4 C 6,6 C 97 % 979,6 hPa 0,2 l/m 2 min 2 min 300 W/m 25,7 km/h
S-SO (4 Bft)
100,00 %
Durchschnitt _ 3,8 C 3,0 C 1,9 C 94 % 978,1 hPa #4,0 l/m #1:10 h #4:58 h 71 W/m 0,9 km/h (0 Bft) 96,82 %
© 2020 W. Hausmann